IBE0269 LEMD-SBGL
Flight info
| Callsign | IBE0269 |
|---|---|
| Flight time | 22h 6m |
| Altitude | 13000 |
| Route | CCS N975 ELVAR/N0490F350 DCT SUNES UN873 ABTIR/N0486F370 UN873 SAMAR N873 ODEGI/N0490F360 N873 ISOKA/N0490F380 N873 IPERA UN873 CVS/N0497F280 UB623 FNR/N0483F400 UN857 MOLSU |
| Aircraft | A359/H-SDE2E3GHIJ3J4J5LM1ORWXY/LB1D1 |
Departure
| Time | 2026-04-30 13:42 |
|---|---|
| Airport | Adolfo Suárez Madrid–Barajas Airport (LEMD) |
Arrival
| Time | 2026-05-01 11:49 |
|---|---|
| Airport | Rio Galeão – Tom Jobim International Airport (SBGL) |
| Time | Latitude | Longitude | Altitude | Speed | Heading |
|---|---|---|---|---|---|
| 2026-04-30 12:15 | 40.49468 | -3.56865 | 1982 ft | 0 kts | 90° |
| 2026-04-30 13:30 | 40.49468 | -3.56889 | 1978 ft | 1 kts | 90° |
| 2026-04-30 13:31 | 40.49468 | -3.56917 | 1978 ft | 2 kts | 108° |
| 2026-04-30 13:31 | 40.49479 | -3.56951 | 1981 ft | 0 kts | 116° |
| 2026-04-30 13:36 | 40.49459 | -3.56953 | 1981 ft | 5 kts | 196° |
| 2026-04-30 13:37 | 40.49408 | -3.56987 | 1984 ft | 9 kts | 205° |
| 2026-04-30 13:37 | 40.49308 | -3.57011 | 1987 ft | 5 kts | 211° |
| 2026-04-30 13:38 | 40.49268 | -3.57106 | 1988 ft | 11 kts | 207° |
| 2026-04-30 13:38 | 40.49193 | -3.57116 | 1987 ft | 11 kts | 181° |
| 2026-04-30 13:38 | 40.49062 | -3.57142 | 1989 ft | 7 kts | 241° |
| 2026-04-30 13:39 | 40.49058 | -3.57272 | 1992 ft | 8 kts | 282° |
| 2026-04-30 13:39 | 40.49197 | -3.57445 | 1994 ft | 14 kts | 349° |
| 2026-04-30 13:40 | 40.49294 | -3.57451 | 1990 ft | 2 kts | 359° |
| 2026-04-30 13:41 | 40.49345 | -3.57452 | 1989 ft | 26 kts | 359° |
| 2026-04-30 13:41 | 40.49727 | -3.57453 | 1992 ft | 81 kts | 360° |
| 2026-04-30 13:41 | 40.50459 | -3.57459 | 1998 ft | 128 kts | 359° |
| 2026-04-30 13:42 | 40.51490 | -3.57467 | 2002 ft | 167 kts | 360° |
| 2026-04-30 13:42 | 40.52659 | -3.57464 | 2562 ft | 155 kts | 360° |
| 2026-04-30 13:42 | 40.54933 | -3.57532 | 3227 ft | 170 kts | 357° |
| 2026-04-30 13:43 | 40.56083 | -3.57990 | 3439 ft | 178 kts | 328° |
| 2026-04-30 13:43 | 40.57050 | -3.59066 | 3635 ft | 189 kts | 310° |
| 2026-04-30 13:43 | 40.57953 | -3.60419 | 3825 ft | 204 kts | 308° |
| 2026-04-30 13:43 | 40.58869 | -3.61937 | 3950 ft | 221 kts | 306° |
| 2026-04-30 13:44 | 40.59933 | -3.63478 | 4266 ft | 232 kts | 315° |
| 2026-04-30 13:44 | 40.61196 | -3.64859 | 4693 ft | 239 kts | 321° |
| 2026-04-30 13:44 | 40.62502 | -3.66191 | 5304 ft | 234 kts | 319° |
| 2026-04-30 13:44 | 40.63593 | -3.67731 | 5892 ft | 229 kts | 299° |
| 2026-04-30 13:45 | 40.64071 | -3.71943 | 6473 ft | 249 kts | 267° |
| 2026-04-30 13:45 | 40.64007 | -3.74291 | 6719 ft | 262 kts | 266° |
| 2026-04-30 13:45 | 40.63944 | -3.76726 | 7119 ft | 270 kts | 267° |
| 2026-04-30 13:46 | 40.63892 | -3.79205 | 7658 ft | 271 kts | 267° |
| 2026-04-30 13:46 | 40.63846 | -3.81690 | 8227 ft | 272 kts | 267° |
| 2026-04-30 13:46 | 40.63803 | -3.84199 | 8718 ft | 276 kts | 267° |
| 2026-04-30 13:46 | 40.63760 | -3.86745 | 9201 ft | 279 kts | 267° |
| 2026-04-30 13:47 | 40.63718 | -3.89298 | 9783 ft | 280 kts | 268° |
| 2026-04-30 13:47 | 40.63675 | -3.91879 | 10220 ft | 286 kts | 268° |
| 2026-04-30 13:47 | 40.63629 | -3.94545 | 10456 ft | 298 kts | 268° |
| 2026-04-30 13:47 | 40.63581 | -3.97330 | 10662 ft | 310 kts | 268° |
| 2026-04-30 13:48 | 40.63533 | -4.00219 | 10873 ft | 322 kts | 268° |
| 2026-04-30 13:48 | 40.63482 | -4.03224 | 11099 ft | 334 kts | 268° |
| 2026-04-30 13:48 | 40.63427 | -4.06324 | 11282 ft | 344 kts | 268° |
| 2026-04-30 13:48 | 40.63369 | -4.09526 | 11479 ft | 355 kts | 268° |
| 2026-04-30 13:49 | 40.63309 | -4.12823 | 11679 ft | 364 kts | 268° |
| 2026-04-30 13:49 | 40.63248 | -4.16171 | 11940 ft | 367 kts | 268° |
| 2026-04-30 13:49 | 40.63185 | -4.19534 | 12001 ft | 368 kts | 268° |
| 2026-04-30 13:49 | 40.63121 | -4.22901 | 11980 ft | 368 kts | 268° |
| 2026-04-30 13:50 | 40.63057 | -4.26267 | 11987 ft | 369 kts | 268° |
| 2026-04-30 13:50 | 40.62926 | -4.33016 | 11986 ft | 369 kts | 268° |
| 2026-04-30 13:50 | 40.62858 | -4.36386 | 12003 ft | 369 kts | 268° |
| 2026-04-30 13:51 | 40.62789 | -4.39751 | 12235 ft | 371 kts | 268° |
| 2026-04-30 13:51 | 40.62717 | -4.43167 | 12716 ft | 371 kts | 268° |
| 2026-04-30 13:51 | 40.62646 | -4.46570 | 13152 ft | 373 kts | 268° |
| 2026-04-30 13:51 | 40.62570 | -4.49993 | 13570 ft | 375 kts | 267° |
| 2026-04-30 13:52 | 40.62281 | -4.53407 | 13959 ft | 376 kts | 257° |
| 2026-04-30 13:52 | 40.61382 | -4.56640 | 14310 ft | 378 kts | 242° |
| 2026-04-30 13:52 | 40.59939 | -4.59544 | 14647 ft | 381 kts | 234° |
| 2026-04-30 13:52 | 40.58345 | -4.62343 | 14988 ft | 383 kts | 233° |
| 2026-04-30 13:53 | 40.56735 | -4.65139 | 15347 ft | 385 kts | 233° |
| 2026-04-30 13:53 | 40.55121 | -4.67953 | 15707 ft | 386 kts | 233° |
| 2026-04-30 13:53 | 40.53501 | -4.70787 | 16083 ft | 388 kts | 233° |
| 2026-04-30 13:53 | 40.52427 | -4.72667 | 16313 ft | 390 kts | 233° |
| 2026-04-30 13:54 | 40.50265 | -4.76455 | 16802 ft | 392 kts | 233° |
| 2026-04-30 13:54 | 40.48624 | -4.79329 | 17158 ft | 394 kts | 233° |
| 2026-04-30 13:54 | 40.46974 | -4.82218 | 17520 ft | 396 kts | 233° |
| 2026-04-30 13:54 | 40.45316 | -4.85119 | 17870 ft | 398 kts | 233° |
| 2026-04-30 13:55 | 40.43652 | -4.88029 | 18230 ft | 400 kts | 233° |
| 2026-04-30 13:55 | 40.41980 | -4.90960 | 18543 ft | 402 kts | 233° |
| 2026-04-30 13:55 | 40.40295 | -4.93897 | 18843 ft | 403 kts | 233° |
| 2026-04-30 13:55 | 40.38605 | -4.96840 | 19133 ft | 405 kts | 233° |
| 2026-04-30 13:56 | 40.36904 | -4.99800 | 19413 ft | 407 kts | 233° |
| 2026-04-30 13:56 | 40.35198 | -5.02766 | 19769 ft | 407 kts | 233° |
| 2026-04-30 13:56 | 40.33492 | -5.05730 | 20108 ft | 408 kts | 233° |
| 2026-04-30 13:56 | 40.31779 | -5.08704 | 20390 ft | 409 kts | 233° |
| 2026-04-30 13:57 | 40.30060 | -5.11687 | 20680 ft | 411 kts | 233° |
| 2026-04-30 13:57 | 40.28335 | -5.14676 | 20973 ft | 412 kts | 233° |
| 2026-04-30 13:57 | 40.26602 | -5.17676 | 21244 ft | 414 kts | 233° |
| 2026-04-30 13:57 | 40.24862 | -5.20685 | 21524 ft | 416 kts | 233° |
| 2026-04-30 13:58 | 40.23115 | -5.23707 | 21774 ft | 417 kts | 233° |
| 2026-04-30 13:58 | 40.20194 | -5.28747 | 22235 ft | 419 kts | 233° |
| 2026-04-30 13:58 | 40.18429 | -5.31790 | 22540 ft | 421 kts | 233° |
| 2026-04-30 13:59 | 40.16656 | -5.34843 | 22829 ft | 422 kts | 233° |
| 2026-04-30 13:59 | 40.14876 | -5.37905 | 23102 ft | 424 kts | 233° |
| 2026-04-30 13:59 | 40.13089 | -5.40977 | 23388 ft | 425 kts | 233° |
| 2026-04-30 13:59 | 40.11297 | -5.44055 | 23702 ft | 425 kts | 233° |
| 2026-04-30 14:00 | 40.09505 | -5.47128 | 23944 ft | 426 kts | 233° |
| 2026-04-30 14:00 | 40.05901 | -5.53302 | 24384 ft | 429 kts | 233° |
| 2026-04-30 14:00 | 40.04090 | -5.56398 | 24606 ft | 430 kts | 233° |
| 2026-04-30 14:01 | 40.02272 | -5.59506 | 24825 ft | 431 kts | 233° |
| 2026-04-30 14:01 | 40.00452 | -5.62612 | 25059 ft | 432 kts | 233° |
| 2026-04-30 14:01 | 39.98625 | -5.65728 | 25256 ft | 433 kts | 233° |
| 2026-04-30 14:01 | 39.96792 | -5.68850 | 25499 ft | 434 kts | 233° |
| 2026-04-30 14:02 | 39.94954 | -5.71979 | 25739 ft | 435 kts | 233° |
| 2026-04-30 14:02 | 39.93108 | -5.75116 | 25920 ft | 437 kts | 233° |
| 2026-04-30 14:02 | 39.91257 | -5.78260 | 26161 ft | 438 kts | 233° |
| 2026-04-30 14:02 | 39.89401 | -5.81410 | 26397 ft | 439 kts | 233° |
| 2026-04-30 14:03 | 39.87536 | -5.84571 | 26605 ft | 440 kts | 232° |
| 2026-04-30 14:03 | 39.85669 | -5.87733 | 26838 ft | 442 kts | 232° |
| 2026-04-30 14:03 | 39.83792 | -5.90908 | 27066 ft | 443 kts | 232° |
| 2026-04-30 14:03 | 39.81911 | -5.94086 | 27305 ft | 444 kts | 232° |
| 2026-04-30 14:04 | 39.80021 | -5.97277 | 27550 ft | 445 kts | 232° |
| 2026-04-30 14:04 | 39.78127 | -6.00471 | 27767 ft | 447 kts | 232° |
| 2026-04-30 14:04 | 39.76227 | -6.03673 | 28009 ft | 448 kts | 232° |
| 2026-04-30 14:04 | 39.74319 | -6.06884 | 28248 ft | 449 kts | 232° |
| 2026-04-30 14:05 | 39.72406 | -6.10101 | 28485 ft | 451 kts | 232° |
| 2026-04-30 14:05 | 39.70484 | -6.13329 | 28672 ft | 453 kts | 232° |
| 2026-04-30 14:05 | 39.68552 | -6.16571 | 28890 ft | 454 kts | 232° |
| 2026-04-30 14:05 | 39.66616 | -6.19816 | 29119 ft | 455 kts | 232° |
| 2026-04-30 14:06 | 39.64675 | -6.23069 | 29364 ft | 457 kts | 232° |
| 2026-04-30 14:06 | 39.60768 | -6.29621 | 29687 ft | 461 kts | 232° |
| 2026-04-30 14:07 | 39.56830 | -6.36199 | 30124 ft | 463 kts | 231° |
| 2026-04-30 14:07 | 39.54851 | -6.39497 | 30293 ft | 464 kts | 231° |
| 2026-04-30 14:07 | 39.52930 | -6.42867 | 30465 ft | 466 kts | 236° |
| 2026-04-30 14:08 | 39.49768 | -6.50174 | 30780 ft | 471 kts | 242° |
| 2026-04-30 14:08 | 39.48317 | -6.53977 | 30971 ft | 471 kts | 243° |
| 2026-04-30 14:08 | 39.45473 | -6.61611 | 31471 ft | 470 kts | 243° |
| 2026-04-30 14:09 | 39.44046 | -6.65412 | 31704 ft | 470 kts | 243° |
| 2026-04-30 14:09 | 39.42607 | -6.69203 | 31936 ft | 469 kts | 242° |
| 2026-04-30 14:09 | 39.39707 | -6.76759 | 32389 ft | 469 kts | 242° |
| 2026-04-30 14:10 | 39.38250 | -6.80530 | 32618 ft | 468 kts | 242° |
| 2026-04-30 14:10 | 39.36793 | -6.84295 | 32776 ft | 470 kts | 242° |
| 2026-04-30 14:10 | 39.35328 | -6.88072 | 32921 ft | 471 kts | 242° |
| 2026-04-30 14:10 | 39.33860 | -6.91855 | 33132 ft | 471 kts | 242° |
| 2026-04-30 14:11 | 39.32394 | -6.95630 | 33369 ft | 470 kts | 242° |
| 2026-04-30 14:11 | 39.30928 | -6.99401 | 33581 ft | 470 kts | 242° |
| 2026-04-30 14:11 | 39.29461 | -7.03170 | 33786 ft | 470 kts | 242° |
| 2026-04-30 14:11 | 39.27994 | -7.06935 | 33991 ft | 469 kts | 242° |
| 2026-04-30 14:12 | 39.26529 | -7.10691 | 34185 ft | 469 kts | 242° |
| 2026-04-30 14:12 | 39.25062 | -7.14447 | 34398 ft | 468 kts | 242° |
| 2026-04-30 14:12 | 39.23509 | -7.18131 | 34568 ft | 466 kts | 237° |
| 2026-04-30 14:12 | 39.21641 | -7.21536 | 34752 ft | 464 kts | 229° |
| 2026-04-30 14:13 | 39.19440 | -7.24548 | 34962 ft | 461 kts | 221° |
| 2026-04-30 14:13 | 39.16985 | -7.27187 | 35188 ft | 459 kts | 217° |
| 2026-04-30 14:13 | 39.14460 | -7.29695 | 35377 ft | 458 kts | 216° |
| 2026-04-30 14:13 | 39.11903 | -7.32142 | 35542 ft | 457 kts | 216° |
| 2026-04-30 14:14 | 39.09338 | -7.34561 | 35698 ft | 457 kts | 215° |
| 2026-04-30 14:14 | 39.06769 | -7.36977 | 35867 ft | 457 kts | 215° |
| 2026-04-30 14:14 | 39.04206 | -7.39394 | 36040 ft | 456 kts | 216° |
| 2026-04-30 14:15 | 38.99070 | -7.44264 | 36117 ft | 462 kts | 216° |
| 2026-04-30 14:15 | 38.93898 | -7.49185 | 36111 ft | 463 kts | 216° |
| 2026-04-30 14:16 | 38.88728 | -7.54103 | 36111 ft | 462 kts | 216° |
| 2026-04-30 14:16 | 38.83551 | -7.59016 | 36106 ft | 463 kts | 216° |
| 2026-04-30 14:17 | 38.78367 | -7.63926 | 36110 ft | 463 kts | 215° |
| 2026-04-30 14:17 | 38.73184 | -7.68825 | 36108 ft | 463 kts | 215° |
| 2026-04-30 14:18 | 38.68000 | -7.73715 | 36106 ft | 463 kts | 215° |
| 2026-04-30 14:18 | 38.60219 | -7.81039 | 36108 ft | 464 kts | 215° |
| 2026-04-30 14:19 | 38.52410 | -7.88369 | 36105 ft | 464 kts | 215° |
| 2026-04-30 14:20 | 38.47205 | -7.93244 | 36106 ft | 464 kts | 215° |
| 2026-04-30 14:20 | 38.39421 | -8.00517 | 36107 ft | 464 kts | 215° |
| 2026-04-30 14:21 | 38.34206 | -8.05379 | 36106 ft | 465 kts | 215° |
| 2026-04-30 14:22 | 38.26374 | -8.12663 | 36105 ft | 465 kts | 215° |
| 2026-04-30 14:22 | 38.18538 | -8.19932 | 36107 ft | 465 kts | 215° |
| 2026-04-30 14:23 | 38.08084 | -8.29598 | 36106 ft | 465 kts | 215° |
| 2026-04-30 14:24 | 38.00236 | -8.36832 | 36112 ft | 465 kts | 215° |
| 2026-04-30 14:25 | 37.89766 | -8.46451 | 36111 ft | 465 kts | 215° |
| 2026-04-30 14:26 | 37.81905 | -8.53651 | 36110 ft | 465 kts | 215° |
| 2026-04-30 14:27 | 37.74032 | -8.60844 | 36111 ft | 465 kts | 215° |
| 2026-04-30 14:27 | 37.68783 | -8.65628 | 36114 ft | 465 kts | 215° |
| 2026-04-30 14:28 | 37.60938 | -8.72762 | 36119 ft | 466 kts | 215° |
| 2026-04-30 14:28 | 37.55675 | -8.77536 | 36113 ft | 466 kts | 215° |
| 2026-04-30 14:29 | 37.46000 | -8.86294 | 36116 ft | 466 kts | 215° |
| 2026-04-30 14:31 | 37.31970 | -8.98942 | 36119 ft | 467 kts | 215° |
| 2026-04-30 14:31 | 37.23836 | -9.05658 | 36122 ft | 466 kts | 211° |
| 2026-04-30 14:32 | 37.15497 | -9.11931 | 36121 ft | 465 kts | 211° |
| 2026-04-30 14:33 | 37.09979 | -9.16163 | 36117 ft | 465 kts | 211° |
| 2026-04-30 14:33 | 37.01725 | -9.22545 | 36119 ft | 465 kts | 212° |
| 2026-04-30 14:34 | 36.96220 | -9.26797 | 36121 ft | 465 kts | 211° |
| 2026-04-30 14:34 | 36.90713 | -9.31040 | 36121 ft | 465 kts | 211° |
| 2026-04-30 14:35 | 36.82453 | -9.37387 | 36119 ft | 464 kts | 212° |
| 2026-04-30 14:36 | 36.76949 | -9.41607 | 36123 ft | 464 kts | 212° |
| 2026-04-30 14:36 | 36.71446 | -9.45821 | 36121 ft | 464 kts | 212° |
| 2026-04-30 14:37 | 36.65979 | -9.49999 | 36117 ft | 463 kts | 212° |
| 2026-04-30 14:37 | 36.60486 | -9.54189 | 36114 ft | 463 kts | 212° |
| 2026-04-30 14:38 | 36.54994 | -9.58372 | 36116 ft | 463 kts | 212° |
| 2026-04-30 14:38 | 36.49504 | -9.62547 | 36119 ft | 463 kts | 212° |
| 2026-04-30 14:39 | 36.44012 | -9.66716 | 36121 ft | 463 kts | 212° |
| 2026-04-30 14:39 | 36.38518 | -9.70880 | 36119 ft | 463 kts | 212° |
| 2026-04-30 14:40 | 36.30279 | -9.77110 | 36116 ft | 462 kts | 212° |
| 2026-04-30 14:40 | 36.24785 | -9.81257 | 36116 ft | 462 kts | 212° |
| 2026-04-30 14:41 | 36.19293 | -9.85394 | 36117 ft | 462 kts | 212° |
| 2026-04-30 14:41 | 36.13809 | -9.89519 | 36116 ft | 461 kts | 212° |
| 2026-04-30 14:42 | 36.08326 | -9.93637 | 36111 ft | 461 kts | 212° |
| 2026-04-30 14:42 | 36.02840 | -9.97750 | 36116 ft | 461 kts | 212° |
| 2026-04-30 14:43 | 35.97370 | -10.01888 | 36115 ft | 461 kts | 214° |
| 2026-04-30 14:43 | 35.92217 | -10.06490 | 36116 ft | 460 kts | 217° |
| 2026-04-30 14:44 | 35.87096 | -10.11238 | 36119 ft | 460 kts | 218° |
| 2026-04-30 14:44 | 35.81984 | -10.16002 | 36120 ft | 460 kts | 218° |
| 2026-04-30 14:45 | 35.76868 | -10.20752 | 36131 ft | 461 kts | 218° |
| 2026-04-30 14:45 | 35.71747 | -10.25489 | 36116 ft | 460 kts | 217° |
| 2026-04-30 14:46 | 35.66627 | -10.30216 | 36116 ft | 460 kts | 217° |
| 2026-04-30 14:46 | 35.62370 | -10.34139 | 36116 ft | 460 kts | 217° |
| 2026-04-30 14:47 | 35.57247 | -10.38853 | 36116 ft | 460 kts | 217° |
| 2026-04-30 14:47 | 35.52122 | -10.43563 | 36116 ft | 460 kts | 217° |
| 2026-04-30 14:48 | 35.46996 | -10.48265 | 36116 ft | 460 kts | 217° |
| 2026-04-30 14:48 | 35.41867 | -10.52962 | 36116 ft | 460 kts | 217° |
| 2026-04-30 14:49 | 35.36736 | -10.57654 | 36124 ft | 460 kts | 218° |
| 2026-04-30 14:49 | 35.31607 | -10.62336 | 36116 ft | 460 kts | 217° |
| 2026-04-30 14:50 | 35.23908 | -10.69350 | 36116 ft | 460 kts | 218° |
| 2026-04-30 14:51 | 35.16205 | -10.76352 | 36116 ft | 460 kts | 218° |
| 2026-04-30 14:52 | 35.08495 | -10.83342 | 36114 ft | 460 kts | 218° |
| 2026-04-30 14:52 | 35.00777 | -10.90323 | 36104 ft | 460 kts | 218° |
| 2026-04-30 14:53 | 34.93080 | -10.97268 | 36117 ft | 462 kts | 218° |
| 2026-04-30 14:54 | 34.82718 | -11.06592 | 36116 ft | 463 kts | 218° |
| 2026-04-30 14:55 | 34.74939 | -11.13571 | 36119 ft | 463 kts | 218° |
| 2026-04-30 14:56 | 34.64543 | -11.22873 | 36114 ft | 465 kts | 219° |
| 2026-04-30 14:57 | 34.56736 | -11.29865 | 36115 ft | 465 kts | 219° |
| 2026-04-30 14:58 | 34.46265 | -11.39257 | 36127 ft | 471 kts | 220° |
| 2026-04-30 14:58 | 34.38327 | -11.46350 | 36121 ft | 474 kts | 221° |
| 2026-04-30 15:00 | 34.25045 | -11.58177 | 36121 ft | 474 kts | 221° |
| 2026-04-30 15:01 | 34.14403 | -11.67620 | 36118 ft | 477 kts | 222° |
| 2026-04-30 15:01 | 34.06342 | -11.74755 | 36121 ft | 480 kts | 221° |
| 2026-04-30 15:02 | 34.00955 | -11.79511 | 36126 ft | 480 kts | 222° |
| 2026-04-30 15:03 | 33.87470 | -11.91384 | 36138 ft | 481 kts | 222° |
| 2026-04-30 15:04 | 33.73918 | -12.03271 | 36121 ft | 483 kts | 222° |
| 2026-04-30 15:06 | 33.60339 | -12.15134 | 36117 ft | 485 kts | 223° |
| 2026-04-30 15:07 | 33.49393 | -12.24661 | 36122 ft | 486 kts | 223° |
| 2026-04-30 15:08 | 33.38436 | -12.34167 | 36127 ft | 486 kts | 223° |
| 2026-04-30 15:09 | 33.24722 | -12.46025 | 36128 ft | 488 kts | 224° |
| 2026-04-30 15:10 | 33.13711 | -12.55511 | 36130 ft | 488 kts | 224° |
| 2026-04-30 15:11 | 32.97224 | -12.69660 | 36139 ft | 489 kts | 223° |
| 2026-04-30 15:13 | 32.83407 | -12.81463 | 36129 ft | 487 kts | 224° |
| 2026-04-30 15:14 | 32.64114 | -12.97789 | 36132 ft | 486 kts | 223° |
| 2026-04-30 15:17 | 32.39300 | -13.18658 | 36135 ft | 483 kts | 223° |
| 2026-04-30 15:19 | 32.17404 | -13.36961 | 36106 ft | 483 kts | 223° |
| 2026-04-30 17:39 | 16.23956 | -23.19767 | 38056 ft | 468 kts | 209° |
| 2026-04-30 17:42 | 15.94576 | -23.34290 | 38059 ft | 469 kts | 209° |
| 2026-04-30 17:43 | 15.79847 | -23.41553 | 38058 ft | 469 kts | 209° |
| 2026-04-30 17:44 | 15.62159 | -23.50261 | 38056 ft | 470 kts | 209° |
| 2026-04-30 17:47 | 15.35584 | -23.63311 | 38045 ft | 470 kts | 208° |
| 2026-04-30 17:48 | 15.14897 | -23.73442 | 38049 ft | 471 kts | 208° |
| 2026-04-30 17:50 | 14.91163 | -23.85043 | 38042 ft | 473 kts | 208° |
| 2026-04-30 17:52 | 14.73308 | -23.93750 | 38037 ft | 473 kts | 208° |
| 2026-04-30 17:54 | 14.46438 | -24.06823 | 38034 ft | 475 kts | 208° |
| 2026-04-30 17:56 | 14.22499 | -24.18442 | 38033 ft | 477 kts | 208° |
| 2026-04-30 17:58 | 14.04532 | -24.27143 | 38032 ft | 477 kts | 208° |
| 2026-04-30 18:00 | 13.80459 | -24.38778 | 38028 ft | 479 kts | 207° |
| 2026-04-30 18:01 | 13.65393 | -24.46041 | 38026 ft | 478 kts | 207° |
| 2026-04-30 18:02 | 13.47237 | -24.54697 | 38021 ft | 480 kts | 207° |
| 2026-04-30 18:04 | 13.30097 | -24.62866 | 38024 ft | 480 kts | 207° |
| 2026-04-30 18:06 | 13.05879 | -24.74386 | 38023 ft | 479 kts | 207° |
| 2026-04-30 18:08 | 12.84693 | -24.84444 | 38018 ft | 480 kts | 207° |
| 2026-04-30 18:10 | 12.60457 | -24.95926 | 38023 ft | 480 kts | 207° |
| 2026-04-30 18:11 | 12.39213 | -25.05971 | 38013 ft | 480 kts | 207° |
| 2026-04-30 18:13 | 12.24056 | -25.13127 | 38008 ft | 480 kts | 207° |
| 2026-04-30 18:14 | 12.08865 | -25.20290 | 38002 ft | 481 kts | 207° |
| 2026-04-30 18:15 | 11.90636 | -25.28874 | 37996 ft | 481 kts | 207° |
| 2026-04-30 18:16 | 11.78465 | -25.34597 | 38012 ft | 482 kts | 207° |
| 2026-04-30 18:17 | 11.72378 | -25.37458 | 38006 ft | 482 kts | 207° |
| 2026-04-30 18:18 | 11.63290 | -25.41726 | 38010 ft | 482 kts | 207° |
| 2026-04-30 18:18 | 11.57200 | -25.44584 | 38009 ft | 482 kts | 207° |
| 2026-04-30 18:19 | 11.51110 | -25.47442 | 37997 ft | 482 kts | 207° |
| 2026-04-30 18:19 | 11.45017 | -25.50298 | 38002 ft | 482 kts | 207° |
| 2026-04-30 18:20 | 11.38923 | -25.53155 | 37996 ft | 482 kts | 207° |
| 2026-04-30 18:20 | 11.32831 | -25.56009 | 37997 ft | 482 kts | 207° |
| 2026-04-30 18:21 | 11.26736 | -25.58862 | 37998 ft | 482 kts | 207° |
| 2026-04-30 18:21 | 11.20643 | -25.61714 | 37996 ft | 482 kts | 207° |
| 2026-04-30 18:22 | 11.14562 | -25.64559 | 37999 ft | 480 kts | 207° |
| 2026-04-30 18:22 | 11.05458 | -25.68815 | 37999 ft | 480 kts | 207° |
| 2026-04-30 18:23 | 10.99387 | -25.71652 | 37994 ft | 480 kts | 207° |
| 2026-04-30 18:23 | 10.93318 | -25.74487 | 37995 ft | 480 kts | 207° |
| 2026-04-30 18:24 | 10.84219 | -25.78734 | 37986 ft | 479 kts | 207° |
| 2026-04-30 18:25 | 10.78169 | -25.81556 | 37994 ft | 478 kts | 207° |
| 2026-04-30 18:25 | 10.69102 | -25.85784 | 37993 ft | 478 kts | 207° |
| 2026-04-30 18:26 | 10.60075 | -25.89991 | 37985 ft | 478 kts | 207° |
| 2026-04-30 18:27 | 10.51009 | -25.94213 | 37984 ft | 478 kts | 206° |
| 2026-04-30 18:28 | 10.41945 | -25.98431 | 37989 ft | 478 kts | 206° |
| 2026-04-30 18:28 | 10.32882 | -26.02646 | 37990 ft | 477 kts | 206° |
| 2026-04-30 18:29 | 10.20801 | -26.08260 | 37988 ft | 477 kts | 206° |
| 2026-04-30 18:30 | 10.08707 | -26.13876 | 37983 ft | 479 kts | 206° |
| 2026-04-30 18:31 | 9.99620 | -26.18092 | 37982 ft | 479 kts | 206° |
| 2026-04-30 18:32 | 9.90575 | -26.22286 | 37981 ft | 479 kts | 206° |
| 2026-04-30 18:33 | 9.81478 | -26.26502 | 37981 ft | 479 kts | 206° |
| 2026-04-30 18:33 | 9.72387 | -26.30713 | 37980 ft | 479 kts | 206° |
| 2026-04-30 18:34 | 9.63296 | -26.34921 | 37977 ft | 479 kts | 206° |
| 2026-04-30 18:35 | 9.57233 | -26.37726 | 37979 ft | 479 kts | 206° |
| 2026-04-30 18:35 | 9.51169 | -26.40530 | 37978 ft | 479 kts | 206° |
| 2026-04-30 18:36 | 9.42077 | -26.44733 | 37982 ft | 479 kts | 206° |
| 2026-04-30 18:37 | 9.32969 | -26.48940 | 37977 ft | 480 kts | 206° |
| 2026-04-30 18:37 | 9.26900 | -26.51742 | 37969 ft | 480 kts | 206° |
| 2026-04-30 18:38 | 9.20870 | -26.54526 | 37969 ft | 480 kts | 206° |
| 2026-04-30 18:38 | 9.14796 | -26.57328 | 37972 ft | 479 kts | 206° |
| 2026-04-30 18:39 | 9.08724 | -26.60128 | 37965 ft | 480 kts | 206° |
| 2026-04-30 18:39 | 9.02648 | -26.62930 | 37970 ft | 480 kts | 206° |
| 2026-04-30 18:40 | 8.96575 | -26.65729 | 37973 ft | 480 kts | 206° |
| 2026-04-30 18:40 | 8.90498 | -26.68529 | 37965 ft | 480 kts | 206° |
| 2026-04-30 18:41 | 8.84420 | -26.71328 | 37965 ft | 480 kts | 206° |
| 2026-04-30 18:41 | 8.78345 | -26.74125 | 37964 ft | 480 kts | 206° |
| 2026-04-30 18:42 | 8.72270 | -26.76920 | 37968 ft | 480 kts | 206° |
| 2026-04-30 18:42 | 8.63161 | -26.81111 | 37960 ft | 480 kts | 206° |
| 2026-04-30 18:45 | 8.29722 | -26.96467 | 37952 ft | 481 kts | 207° |
| 2026-04-30 18:46 | 8.23672 | -26.99242 | 37961 ft | 481 kts | 207° |
| 2026-04-30 18:46 | 8.17582 | -27.02034 | 37958 ft | 481 kts | 207° |
| 2026-04-30 18:47 | 8.11493 | -27.04825 | 37954 ft | 481 kts | 207° |
| 2026-04-30 18:47 | 8.05400 | -27.07617 | 37957 ft | 481 kts | 207° |
| 2026-04-30 18:48 | 7.99307 | -27.10408 | 37952 ft | 481 kts | 207° |
| 2026-04-30 18:48 | 7.93213 | -27.13198 | 37955 ft | 481 kts | 207° |
| 2026-04-30 18:49 | 7.87116 | -27.15989 | 37956 ft | 481 kts | 207° |
| 2026-04-30 18:49 | 7.81020 | -27.18778 | 37952 ft | 481 kts | 207° |
| 2026-04-30 18:50 | 7.74924 | -27.21567 | 37946 ft | 481 kts | 207° |
| 2026-04-30 18:50 | 7.68826 | -27.24356 | 37947 ft | 481 kts | 207° |
| 2026-04-30 18:51 | 7.62727 | -27.27144 | 37947 ft | 481 kts | 207° |
| 2026-04-30 18:51 | 7.57662 | -27.29459 | 37946 ft | 481 kts | 207° |
| 2026-04-30 18:52 | 7.50571 | -27.32698 | 37944 ft | 481 kts | 207° |
| 2026-04-30 18:52 | 7.45462 | -27.35032 | 37943 ft | 481 kts | 207° |
| 2026-04-30 18:53 | 7.39364 | -27.37816 | 37945 ft | 481 kts | 207° |
| 2026-04-30 18:53 | 7.33260 | -27.40603 | 37941 ft | 482 kts | 207° |
| 2026-04-30 18:54 | 7.27157 | -27.43388 | 37939 ft | 482 kts | 207° |
| 2026-04-30 18:54 | 7.21092 | -27.46155 | 37939 ft | 482 kts | 207° |
| 2026-04-30 18:55 | 7.14988 | -27.48938 | 37938 ft | 482 kts | 207° |
| 2026-04-30 18:55 | 7.05828 | -27.53114 | 37937 ft | 482 kts | 207° |
| 2026-04-30 18:56 | 6.96663 | -27.57291 | 37936 ft | 482 kts | 207° |
| 2026-04-30 18:57 | 6.87489 | -27.61470 | 37938 ft | 482 kts | 207° |
| 2026-04-30 18:57 | 6.81375 | -27.64257 | 37932 ft | 482 kts | 207° |
| 2026-04-30 18:58 | 6.72202 | -27.68431 | 37931 ft | 482 kts | 207° |
| 2026-04-30 18:59 | 6.63023 | -27.72607 | 37931 ft | 483 kts | 207° |
| 2026-04-30 19:00 | 6.50776 | -27.78177 | 37928 ft | 483 kts | 207° |
| 2026-04-30 19:01 | 6.38531 | -27.83744 | 37931 ft | 483 kts | 207° |
| 2026-04-30 19:02 | 6.29348 | -27.87917 | 37927 ft | 483 kts | 207° |
| 2026-04-30 19:03 | 6.17101 | -27.93479 | 37925 ft | 483 kts | 207° |
| 2026-04-30 19:04 | 6.04859 | -27.99036 | 37924 ft | 483 kts | 207° |
| 2026-04-30 19:05 | 5.92654 | -28.04574 | 37925 ft | 483 kts | 207° |
| 2026-04-30 19:06 | 5.80403 | -28.10130 | 37923 ft | 483 kts | 207° |
| 2026-04-30 19:06 | 5.71220 | -28.14293 | 37919 ft | 483 kts | 207° |
| 2026-04-30 19:07 | 5.62036 | -28.18455 | 37920 ft | 483 kts | 207° |
| 2026-04-30 19:08 | 5.49784 | -28.24005 | 37916 ft | 483 kts | 207° |
| 2026-04-30 19:09 | 5.40594 | -28.28166 | 37919 ft | 483 kts | 207° |
| 2026-04-30 19:09 | 5.34471 | -28.30937 | 37915 ft | 483 kts | 207° |
| 2026-04-30 19:10 | 5.22238 | -28.36474 | 37911 ft | 484 kts | 207° |
| 2026-04-30 19:11 | 5.13030 | -28.40639 | 37910 ft | 484 kts | 207° |
| 2026-04-30 19:12 | 5.06891 | -28.43415 | 37912 ft | 484 kts | 207° |
| 2026-04-30 19:12 | 5.00755 | -28.46189 | 37910 ft | 484 kts | 207° |
| 2026-04-30 19:13 | 4.88492 | -28.51732 | 37908 ft | 483 kts | 208° |
| 2026-04-30 19:14 | 4.82358 | -28.54504 | 37908 ft | 483 kts | 208° |
| 2026-04-30 19:14 | 4.76225 | -28.57275 | 37910 ft | 483 kts | 208° |
| 2026-04-30 19:15 | 4.70093 | -28.60045 | 37910 ft | 483 kts | 207° |
| 2026-04-30 19:15 | 4.60902 | -28.64195 | 37907 ft | 483 kts | 207° |
| 2026-04-30 19:16 | 4.54778 | -28.66959 | 37908 ft | 483 kts | 207° |
| 2026-04-30 19:17 | 4.45589 | -28.71107 | 37907 ft | 483 kts | 207° |
| 2026-04-30 19:17 | 4.36395 | -28.75255 | 37908 ft | 483 kts | 207° |
| 2026-04-30 19:18 | 4.27189 | -28.79409 | 37905 ft | 484 kts | 207° |
| 2026-04-30 19:19 | 4.21044 | -28.82180 | 37907 ft | 484 kts | 207° |
| 2026-04-30 19:19 | 4.11843 | -28.86328 | 37908 ft | 484 kts | 207° |
| 2026-04-30 19:20 | 4.05700 | -28.89098 | 37909 ft | 484 kts | 207° |
| 2026-04-30 19:21 | 3.96475 | -28.93257 | 37908 ft | 485 kts | 207° |
| 2026-04-30 19:22 | 3.84169 | -28.98801 | 37908 ft | 485 kts | 206° |
| 2026-04-30 19:23 | 3.65701 | -29.07119 | 37907 ft | 485 kts | 206° |
| 2026-04-30 19:24 | 3.56508 | -29.11259 | 37906 ft | 485 kts | 206° |
| 2026-04-30 19:25 | 3.41117 | -29.18186 | 37901 ft | 485 kts | 206° |
| 2026-04-30 19:26 | 3.28806 | -29.23727 | 37903 ft | 485 kts | 206° |
| 2026-04-30 19:27 | 3.19582 | -29.27875 | 37904 ft | 484 kts | 206° |
| 2026-04-30 19:28 | 3.10368 | -29.32019 | 37906 ft | 484 kts | 206° |
| 2026-04-30 19:29 | 2.98086 | -29.37542 | 37903 ft | 484 kts | 206° |
| 2026-04-30 19:30 | 2.85800 | -29.43064 | 37899 ft | 484 kts | 206° |
| 2026-04-30 19:31 | 2.73556 | -29.48568 | 37901 ft | 484 kts | 206° |
| 2026-04-30 19:31 | 2.64301 | -29.52727 | 37901 ft | 484 kts | 205° |
| 2026-04-30 19:32 | 2.58203 | -29.55466 | 37902 ft | 483 kts | 205° |
| 2026-04-30 19:32 | 2.52072 | -29.58220 | 37904 ft | 483 kts | 205° |
| 2026-04-30 19:33 | 2.45944 | -29.60973 | 37901 ft | 483 kts | 205° |
| 2026-04-30 19:33 | 2.39815 | -29.63726 | 37900 ft | 483 kts | 205° |
| 2026-04-30 19:34 | 2.33687 | -29.66478 | 37897 ft | 483 kts | 205° |
| 2026-04-30 19:35 | 2.24493 | -29.70607 | 37899 ft | 483 kts | 205° |
| 2026-04-30 19:35 | 2.18364 | -29.73359 | 37898 ft | 483 kts | 205° |
| 2026-04-30 19:36 | 2.12235 | -29.76110 | 37898 ft | 483 kts | 205° |
| 2026-04-30 19:36 | 2.03043 | -29.80236 | 37898 ft | 483 kts | 205° |
| 2026-04-30 19:37 | 1.96914 | -29.82988 | 37902 ft | 483 kts | 205° |
| 2026-04-30 19:37 | 1.90780 | -29.85741 | 37897 ft | 483 kts | 205° |
| 2026-04-30 19:38 | 1.84648 | -29.88493 | 37895 ft | 483 kts | 205° |
| 2026-04-30 19:38 | 1.78519 | -29.91244 | 37899 ft | 483 kts | 205° |
| 2026-04-30 19:39 | 1.72389 | -29.93994 | 37899 ft | 483 kts | 205° |
| 2026-04-30 19:39 | 1.67295 | -29.96280 | 37897 ft | 483 kts | 205° |
| 2026-04-30 19:40 | 1.61162 | -29.99032 | 37900 ft | 484 kts | 205° |
| 2026-04-30 19:40 | 1.55018 | -30.01793 | 37892 ft | 485 kts | 205° |
| 2026-04-30 19:41 | 1.48866 | -30.04552 | 37889 ft | 484 kts | 205° |
| 2026-04-30 19:41 | 1.42718 | -30.07307 | 37888 ft | 484 kts | 205° |
| 2026-04-30 19:42 | 1.36569 | -30.10064 | 37893 ft | 484 kts | 205° |
| 2026-04-30 19:42 | 1.30420 | -30.12822 | 37894 ft | 485 kts | 205° |
| 2026-04-30 19:43 | 1.24259 | -30.15586 | 37891 ft | 485 kts | 205° |
| 2026-04-30 19:44 | 1.15015 | -30.19732 | 37894 ft | 485 kts | 205° |
| 2026-04-30 19:44 | 1.08854 | -30.22495 | 37892 ft | 485 kts | 205° |
| 2026-04-30 19:45 | 1.02687 | -30.25260 | 37891 ft | 485 kts | 205° |
| 2026-04-30 19:45 | 0.96528 | -30.28023 | 37890 ft | 485 kts | 205° |
| 2026-04-30 19:46 | 0.90383 | -30.30778 | 37889 ft | 484 kts | 205° |
| 2026-04-30 19:46 | 0.84245 | -30.33530 | 37889 ft | 483 kts | 205° |
| 2026-04-30 19:47 | 0.78108 | -30.36282 | 37894 ft | 483 kts | 205° |
| 2026-04-30 19:47 | 0.71972 | -30.39033 | 37894 ft | 484 kts | 205° |
| 2026-04-30 19:48 | 0.65875 | -30.41767 | 37889 ft | 484 kts | 205° |
| 2026-04-30 19:48 | 0.59738 | -30.44518 | 37889 ft | 483 kts | 205° |
| 2026-04-30 19:49 | 0.53603 | -30.47269 | 37891 ft | 483 kts | 205° |
| 2026-04-30 19:49 | 0.44403 | -30.51394 | 37889 ft | 483 kts | 205° |
| 2026-04-30 19:50 | 0.38267 | -30.54144 | 37887 ft | 483 kts | 205° |
| 2026-04-30 19:50 | 0.32136 | -30.56898 | 37890 ft | 483 kts | 205° |
| 2026-04-30 19:51 | 0.26013 | -30.59640 | 37887 ft | 482 kts | 205° |
| 2026-04-30 19:51 | 0.19898 | -30.62379 | 37887 ft | 481 kts | 205° |
| 2026-04-30 19:52 | 0.13787 | -30.65117 | 37884 ft | 481 kts | 205° |
| 2026-04-30 19:52 | 0.07676 | -30.67856 | 37885 ft | 481 kts | 205° |
| 2026-04-30 19:53 | 0.01560 | -30.70597 | 37889 ft | 482 kts | 205° |
| 2026-04-30 19:53 | -0.04554 | -30.73338 | 37891 ft | 481 kts | 205° |
| 2026-04-30 19:54 | -0.10657 | -30.76073 | 37889 ft | 480 kts | 205° |
| 2026-04-30 19:54 | -0.16713 | -30.78788 | 37886 ft | 480 kts | 205° |
| 2026-04-30 19:55 | -0.22811 | -30.81522 | 37887 ft | 480 kts | 205° |
| 2026-04-30 19:55 | -0.28906 | -30.84253 | 37887 ft | 480 kts | 205° |
| 2026-04-30 19:56 | -0.35003 | -30.86986 | 37887 ft | 480 kts | 205° |
| 2026-04-30 19:56 | -0.41097 | -30.89718 | 37887 ft | 480 kts | 205° |
| 2026-04-30 19:57 | -0.47194 | -30.92451 | 37886 ft | 480 kts | 205° |
| 2026-04-30 19:57 | -0.53289 | -30.95183 | 37887 ft | 480 kts | 205° |
| 2026-04-30 19:58 | -0.59385 | -30.97916 | 37885 ft | 480 kts | 205° |
| 2026-04-30 19:58 | -0.65490 | -31.00653 | 37888 ft | 481 kts | 205° |
| 2026-04-30 19:59 | -0.71592 | -31.03388 | 37885 ft | 481 kts | 205° |
| 2026-04-30 20:00 | -0.80745 | -31.07492 | 37886 ft | 481 kts | 205° |
| 2026-04-30 20:00 | -0.86855 | -31.10206 | 37887 ft | 481 kts | 204° |
| 2026-04-30 20:01 | -0.96104 | -31.14092 | 37884 ft | 481 kts | 203° |
| 2026-04-30 20:01 | -1.02231 | -31.16663 | 37884 ft | 481 kts | 203° |
| 2026-04-30 20:02 | -1.11474 | -31.20572 | 37883 ft | 481 kts | 203° |
| 2026-04-30 20:03 | -1.20713 | -31.24489 | 37885 ft | 481 kts | 203° |
| 2026-04-30 20:03 | -1.26875 | -31.27101 | 37884 ft | 481 kts | 203° |
| 2026-04-30 20:04 | -1.33036 | -31.29713 | 37883 ft | 482 kts | 203° |
| 2026-04-30 20:05 | -1.42309 | -31.33643 | 37891 ft | 483 kts | 203° |
| 2026-04-30 20:05 | -1.51593 | -31.37578 | 37884 ft | 483 kts | 203° |
| 2026-04-30 20:06 | -1.57782 | -31.40202 | 37889 ft | 483 kts | 203° |
| 2026-04-30 20:06 | -1.63973 | -31.42826 | 37884 ft | 483 kts | 203° |
| 2026-04-30 20:07 | -1.70171 | -31.45454 | 37880 ft | 484 kts | 203° |
| 2026-04-30 20:08 | -1.79483 | -31.49403 | 37882 ft | 485 kts | 203° |
| 2026-04-30 20:08 | -1.85698 | -31.52038 | 37883 ft | 485 kts | 203° |
| 2026-04-30 20:09 | -1.91922 | -31.54678 | 37889 ft | 487 kts | 204° |
| 2026-04-30 20:09 | -2.01285 | -31.58649 | 37890 ft | 488 kts | 203° |
| 2026-04-30 20:10 | -2.10614 | -31.62606 | 37891 ft | 488 kts | 203° |
| 2026-04-30 20:11 | -2.19986 | -31.66582 | 37879 ft | 487 kts | 203° |
| 2026-04-30 20:11 | -2.26231 | -31.69231 | 37882 ft | 488 kts | 203° |
| 2026-04-30 20:12 | -2.35577 | -31.73197 | 37885 ft | 485 kts | 203° |
| 2026-04-30 20:13 | -2.41782 | -31.75831 | 37893 ft | 485 kts | 203° |
| 2026-04-30 20:13 | -2.47993 | -31.78467 | 37886 ft | 484 kts | 203° |
| 2026-04-30 20:14 | -2.54202 | -31.81102 | 37879 ft | 484 kts | 203° |
| 2026-04-30 20:14 | -2.60408 | -31.83737 | 37891 ft | 485 kts | 203° |
| 2026-04-30 20:15 | -2.66623 | -31.86376 | 37884 ft | 486 kts | 203° |
| 2026-04-30 20:15 | -2.72850 | -31.89020 | 37880 ft | 486 kts | 203° |
| 2026-04-30 20:16 | -2.79078 | -31.91665 | 37893 ft | 486 kts | 203° |
| 2026-04-30 20:16 | -2.85301 | -31.94308 | 37884 ft | 486 kts | 203° |
| 2026-04-30 20:17 | -2.91525 | -31.96951 | 37883 ft | 486 kts | 203° |
| 2026-04-30 20:17 | -2.97764 | -31.99601 | 37881 ft | 487 kts | 203° |
| 2026-04-30 20:18 | -3.04012 | -32.02256 | 37877 ft | 488 kts | 203° |
| 2026-04-30 20:18 | -3.10259 | -32.04910 | 37883 ft | 488 kts | 203° |
| 2026-04-30 20:19 | -3.16508 | -32.07566 | 37879 ft | 487 kts | 203° |
| 2026-04-30 20:19 | -3.22759 | -32.10223 | 37887 ft | 489 kts | 203° |
| 2026-04-30 20:20 | -3.29002 | -32.12898 | 37886 ft | 487 kts | 206° |
| 2026-04-30 20:20 | -3.34976 | -32.15976 | 37886 ft | 485 kts | 209° |
| 2026-04-30 20:21 | -3.40890 | -32.19244 | 37873 ft | 485 kts | 209° |
| 2026-04-30 20:21 | -3.46832 | -32.22461 | 37888 ft | 486 kts | 209° |
| 2026-04-30 20:22 | -3.52806 | -32.25631 | 37886 ft | 486 kts | 208° |
| 2026-04-30 20:22 | -3.58786 | -32.28782 | 37886 ft | 485 kts | 208° |
| 2026-04-30 20:23 | -3.64769 | -32.31935 | 37878 ft | 486 kts | 208° |
| 2026-04-30 20:23 | -3.70747 | -32.35089 | 37888 ft | 486 kts | 208° |
| 2026-04-30 20:24 | -3.76742 | -32.38255 | 37881 ft | 488 kts | 208° |
| 2026-04-30 20:24 | -3.82751 | -32.41428 | 37884 ft | 488 kts | 208° |
| 2026-04-30 20:25 | -3.91784 | -32.46154 | 37882 ft | 487 kts | 207° |
| 2026-04-30 20:26 | -4.00846 | -32.50786 | 37883 ft | 487 kts | 207° |
| 2026-04-30 20:26 | -4.09899 | -32.55434 | 37888 ft | 487 kts | 208° |
| 2026-04-30 20:27 | -4.21958 | -32.61642 | 37886 ft | 488 kts | 208° |
| 2026-04-30 20:28 | -4.34004 | -32.67846 | 37886 ft | 489 kts | 207° |
| 2026-04-30 20:30 | -4.49121 | -32.75633 | 37887 ft | 489 kts | 208° |
| 2026-04-30 20:31 | -4.66284 | -32.84474 | 37887 ft | 489 kts | 208° |
| 2026-04-30 20:32 | -4.81420 | -32.92246 | 37889 ft | 489 kts | 208° |
| 2026-04-30 20:33 | -4.90514 | -32.96922 | 37889 ft | 490 kts | 207° |
| 2026-04-30 20:34 | -4.99575 | -33.01582 | 37886 ft | 490 kts | 208° |
| 2026-04-30 20:35 | -5.08677 | -33.06264 | 37893 ft | 490 kts | 208° |
| 2026-04-30 20:35 | -5.17798 | -33.10958 | 37886 ft | 493 kts | 208° |
| 2026-04-30 20:36 | -5.23900 | -33.14099 | 37892 ft | 493 kts | 207° |
| 2026-04-30 20:37 | -5.33062 | -33.18817 | 37893 ft | 494 kts | 207° |
| 2026-04-30 20:37 | -5.39182 | -33.21968 | 37892 ft | 494 kts | 208° |
| 2026-04-30 20:38 | -5.45303 | -33.25121 | 37895 ft | 495 kts | 208° |
| 2026-04-30 20:38 | -5.51430 | -33.28279 | 37895 ft | 495 kts | 207° |
| 2026-04-30 20:39 | -5.60623 | -33.33017 | 37894 ft | 495 kts | 207° |
| 2026-04-30 20:40 | -5.69815 | -33.37755 | 37896 ft | 495 kts | 208° |
| 2026-04-30 20:40 | -5.75945 | -33.40917 | 37900 ft | 496 kts | 208° |
| 2026-04-30 20:41 | -5.85168 | -33.45676 | 37901 ft | 498 kts | 208° |
| 2026-04-30 20:41 | -5.91340 | -33.48862 | 38004 ft | 499 kts | 208° |
| 2026-04-30 20:42 | -5.94388 | -33.50435 | 38220 ft | 499 kts | 208° |
| 2026-04-30 20:42 | -5.97516 | -33.52049 | 38420 ft | 498 kts | 208° |
| 2026-04-30 20:42 | -6.03629 | -33.55205 | 38789 ft | 497 kts | 209° |
| 2026-04-30 20:43 | -6.06705 | -33.56794 | 38943 ft | 497 kts | 208° |
| 2026-04-30 20:43 | -6.09775 | -33.58380 | 39121 ft | 495 kts | 208° |
| 2026-04-30 20:43 | -6.12836 | -33.59960 | 39276 ft | 495 kts | 209° |
| 2026-04-30 20:44 | -6.18948 | -33.63119 | 39610 ft | 493 kts | 209° |
| 2026-04-30 20:44 | -6.21996 | -33.64694 | 39720 ft | 493 kts | 208° |
| 2026-04-30 20:44 | -6.28087 | -33.67842 | 39909 ft | 492 kts | 209° |
| 2026-04-30 20:45 | -6.34169 | -33.70987 | 39900 ft | 491 kts | 209° |
| 2026-04-30 20:45 | -6.40245 | -33.74130 | 39900 ft | 491 kts | 209° |
| 2026-04-30 20:46 | -6.52396 | -33.80416 | 39901 ft | 491 kts | 209° |
| 2026-04-30 20:47 | -6.61510 | -33.85134 | 39901 ft | 491 kts | 209° |
| 2026-04-30 20:48 | -6.70625 | -33.89854 | 39903 ft | 491 kts | 209° |
| 2026-04-30 20:48 | -6.76702 | -33.93002 | 39903 ft | 491 kts | 209° |
| 2026-04-30 20:49 | -6.82781 | -33.96152 | 39903 ft | 491 kts | 209° |
| 2026-04-30 20:50 | -6.91893 | -34.00875 | 39901 ft | 491 kts | 209° |
| 2026-04-30 20:50 | -6.97966 | -34.04023 | 39901 ft | 491 kts | 209° |
| 2026-04-30 20:51 | -7.04033 | -34.07170 | 39896 ft | 490 kts | 209° |
| 2026-04-30 20:51 | -7.13127 | -34.11889 | 39900 ft | 490 kts | 209° |
| 2026-04-30 20:52 | -7.19192 | -34.15037 | 39904 ft | 490 kts | 208° |
| 2026-04-30 20:53 | -7.28284 | -34.19758 | 39898 ft | 490 kts | 209° |
| 2026-04-30 20:53 | -7.34335 | -34.22901 | 39900 ft | 489 kts | 209° |
| 2026-04-30 20:54 | -7.43403 | -34.27614 | 39900 ft | 489 kts | 209° |
| 2026-04-30 20:55 | -7.52467 | -34.32326 | 39903 ft | 489 kts | 209° |
| 2026-04-30 20:55 | -7.58505 | -34.35466 | 39903 ft | 488 kts | 208° |
| 2026-04-30 20:56 | -7.67558 | -34.40177 | 39906 ft | 488 kts | 208° |
| 2026-04-30 20:57 | -7.76611 | -34.44890 | 39905 ft | 488 kts | 208° |
| 2026-04-30 20:57 | -7.82578 | -34.48072 | 39910 ft | 488 kts | 210° |
| 2026-04-30 20:58 | -7.91524 | -34.52945 | 39909 ft | 487 kts | 209° |
| 2026-04-30 20:58 | -7.97492 | -34.56182 | 39908 ft | 487 kts | 210° |
| 2026-04-30 20:59 | -8.06450 | -34.61027 | 39908 ft | 487 kts | 209° |
| 2026-04-30 21:00 | -8.18684 | -34.66925 | 39911 ft | 488 kts | 204° |
| 2026-04-30 21:01 | -8.28104 | -34.70830 | 39911 ft | 488 kts | 203° |
| 2026-04-30 21:02 | -8.37528 | -34.74726 | 39913 ft | 488 kts | 203° |
| 2026-04-30 21:02 | -8.43798 | -34.77328 | 39915 ft | 487 kts | 203° |
| 2026-04-30 21:03 | -8.50074 | -34.79936 | 39914 ft | 488 kts | 204° |
| 2026-04-30 21:03 | -8.56352 | -34.82545 | 39914 ft | 488 kts | 203° |
| 2026-04-30 21:04 | -8.62633 | -34.85156 | 39914 ft | 488 kts | 203° |
| 2026-04-30 21:04 | -8.72050 | -34.89073 | 39916 ft | 488 kts | 204° |
| 2026-04-30 21:05 | -8.78337 | -34.91689 | 39914 ft | 489 kts | 204° |
| 2026-04-30 21:05 | -8.84628 | -34.94307 | 39919 ft | 489 kts | 203° |
| 2026-04-30 21:06 | -8.90877 | -34.96909 | 39916 ft | 489 kts | 204° |
| 2026-04-30 21:06 | -8.97164 | -34.99528 | 39915 ft | 489 kts | 203° |
| 2026-04-30 21:07 | -9.03447 | -35.02149 | 39919 ft | 488 kts | 203° |
| 2026-04-30 21:07 | -9.09475 | -35.05283 | 39922 ft | 487 kts | 210° |
| 2026-04-30 21:08 | -9.15379 | -35.08659 | 39919 ft | 487 kts | 211° |
| 2026-04-30 21:08 | -9.21257 | -35.12076 | 39919 ft | 487 kts | 211° |
| 2026-04-30 21:09 | -9.27139 | -35.15492 | 39922 ft | 487 kts | 210° |
| 2026-04-30 21:09 | -9.33028 | -35.18905 | 39922 ft | 488 kts | 210° |
| 2026-04-30 21:10 | -9.38919 | -35.22315 | 39919 ft | 488 kts | 210° |
| 2026-04-30 21:10 | -9.44813 | -35.25727 | 39922 ft | 488 kts | 210° |
| 2026-04-30 21:11 | -9.50696 | -35.29135 | 39922 ft | 487 kts | 210° |
| 2026-04-30 21:11 | -9.56579 | -35.32544 | 39922 ft | 487 kts | 210° |
| 2026-04-30 21:12 | -9.62454 | -35.35950 | 39922 ft | 487 kts | 210° |
| 2026-04-30 21:12 | -9.68294 | -35.39338 | 39925 ft | 487 kts | 210° |
| 2026-04-30 21:13 | -9.74170 | -35.42747 | 39925 ft | 487 kts | 210° |
| 2026-04-30 21:13 | -9.80046 | -35.46159 | 39925 ft | 487 kts | 210° |
| 2026-04-30 21:14 | -9.85926 | -35.49573 | 39931 ft | 487 kts | 210° |
| 2026-04-30 21:14 | -9.91798 | -35.52985 | 39927 ft | 486 kts | 210° |
| 2026-04-30 21:15 | -9.97668 | -35.56397 | 39928 ft | 486 kts | 210° |
| 2026-04-30 21:15 | -10.03534 | -35.59807 | 39928 ft | 486 kts | 210° |
| 2026-04-30 21:16 | -10.09403 | -35.63221 | 39933 ft | 486 kts | 210° |
| 2026-04-30 21:16 | -10.15269 | -35.66636 | 39934 ft | 486 kts | 209° |
| 2026-04-30 21:17 | -10.21139 | -35.70053 | 39931 ft | 486 kts | 209° |
| 2026-04-30 21:17 | -10.26018 | -35.72895 | 39931 ft | 486 kts | 209° |
| 2026-04-30 21:18 | -10.31888 | -35.76315 | 39934 ft | 486 kts | 209° |
| 2026-04-30 21:18 | -10.37750 | -35.79732 | 39936 ft | 486 kts | 209° |
| 2026-04-30 21:19 | -10.43603 | -35.83150 | 39934 ft | 485 kts | 209° |
| 2026-04-30 21:19 | -10.49459 | -35.86565 | 39936 ft | 485 kts | 209° |
| 2026-04-30 21:20 | -10.55314 | -35.89980 | 39938 ft | 485 kts | 209° |
| 2026-04-30 21:20 | -10.61169 | -35.93398 | 39937 ft | 485 kts | 209° |
| 2026-04-30 21:21 | -10.67025 | -35.96820 | 39938 ft | 485 kts | 209° |
| 2026-04-30 21:22 | -10.75804 | -36.01953 | 39936 ft | 485 kts | 208° |
| 2026-04-30 21:23 | -10.87485 | -36.08786 | 39944 ft | 484 kts | 208° |
| 2026-04-30 21:23 | -10.96239 | -36.13911 | 39941 ft | 484 kts | 208° |
| 2026-04-30 21:24 | -11.02074 | -36.17329 | 39944 ft | 484 kts | 208° |
| 2026-04-30 21:24 | -11.07915 | -36.20752 | 39944 ft | 484 kts | 208° |
| 2026-04-30 21:25 | -11.16711 | -36.25823 | 39945 ft | 484 kts | 206° |
| 2026-04-30 21:26 | -11.25716 | -36.30449 | 39948 ft | 483 kts | 205° |
| 2026-04-30 21:27 | -11.34714 | -36.35098 | 39946 ft | 484 kts | 205° |
| 2026-04-30 21:27 | -11.40698 | -36.38234 | 39950 ft | 484 kts | 205° |
| 2026-04-30 21:28 | -11.49668 | -36.42947 | 39949 ft | 484 kts | 205° |
| 2026-04-30 21:29 | -11.58605 | -36.47642 | 39952 ft | 484 kts | 205° |
| 2026-04-30 21:30 | -11.73575 | -36.55513 | 39952 ft | 484 kts | 205° |
| 2026-04-30 21:31 | -11.88544 | -36.63392 | 39955 ft | 484 kts | 205° |
| 2026-04-30 21:32 | -11.97517 | -36.68120 | 39958 ft | 484 kts | 205° |
| 2026-04-30 21:32 | -12.03501 | -36.71275 | 39957 ft | 484 kts | 205° |
| 2026-04-30 21:33 | -12.12474 | -36.76010 | 39958 ft | 484 kts | 205° |
| 2026-04-30 21:34 | -12.18447 | -36.79163 | 39958 ft | 483 kts | 205° |
| 2026-04-30 21:34 | -12.27401 | -36.83893 | 39960 ft | 483 kts | 205° |
| 2026-04-30 21:35 | -12.33371 | -36.87049 | 39963 ft | 483 kts | 205° |
| 2026-04-30 21:35 | -12.39343 | -36.90207 | 39963 ft | 483 kts | 205° |
| 2026-04-30 21:36 | -12.45310 | -36.93364 | 39963 ft | 483 kts | 205° |
| 2026-04-30 21:37 | -12.57209 | -36.99665 | 39960 ft | 483 kts | 205° |
| 2026-04-30 21:37 | -12.63170 | -37.02825 | 39963 ft | 483 kts | 205° |
| 2026-04-30 21:38 | -12.69133 | -37.05987 | 39963 ft | 482 kts | 205° |
| 2026-04-30 21:38 | -12.75091 | -37.09148 | 39963 ft | 482 kts | 205° |
| 2026-04-30 21:39 | -12.81053 | -37.12313 | 39966 ft | 482 kts | 205° |
| 2026-04-30 21:39 | -12.87013 | -37.15478 | 39963 ft | 482 kts | 205° |
| 2026-04-30 21:40 | -12.92971 | -37.18644 | 39969 ft | 482 kts | 205° |
| 2026-04-30 21:40 | -12.98927 | -37.21811 | 39968 ft | 482 kts | 205° |
| 2026-04-30 21:41 | -13.04883 | -37.24980 | 39968 ft | 482 kts | 205° |
| 2026-04-30 21:41 | -13.10842 | -37.28150 | 39969 ft | 482 kts | 205° |
| 2026-04-30 21:42 | -13.16799 | -37.31321 | 39968 ft | 482 kts | 205° |
| 2026-04-30 21:42 | -13.22755 | -37.34497 | 39969 ft | 482 kts | 205° |
| 2026-04-30 21:43 | -13.28715 | -37.37675 | 39974 ft | 482 kts | 205° |
| 2026-04-30 21:43 | -13.34669 | -37.40852 | 39974 ft | 482 kts | 205° |
| 2026-04-30 21:44 | -13.40624 | -37.44031 | 39969 ft | 482 kts | 205° |
| 2026-04-30 21:44 | -13.46581 | -37.47212 | 39979 ft | 482 kts | 205° |
| 2026-04-30 21:45 | -13.52533 | -37.50393 | 39977 ft | 482 kts | 205° |
| 2026-04-30 21:45 | -13.58442 | -37.53553 | 39977 ft | 482 kts | 205° |
| 2026-04-30 21:46 | -13.64389 | -37.56735 | 39977 ft | 482 kts | 205° |
| 2026-04-30 21:46 | -13.70337 | -37.59918 | 39980 ft | 482 kts | 205° |
| 2026-04-30 21:47 | -13.76289 | -37.63106 | 39979 ft | 482 kts | 205° |
| 2026-04-30 21:47 | -13.82234 | -37.66292 | 39981 ft | 482 kts | 205° |
| 2026-04-30 21:48 | -13.88178 | -37.69479 | 39984 ft | 482 kts | 205° |
| 2026-04-30 21:48 | -13.94125 | -37.72670 | 39981 ft | 482 kts | 205° |
| 2026-04-30 21:49 | -14.00064 | -37.75858 | 39994 ft | 481 kts | 205° |
| 2026-04-30 21:49 | -14.06005 | -37.79049 | 39990 ft | 481 kts | 205° |
| 2026-04-30 21:50 | -14.11936 | -37.82237 | 39994 ft | 481 kts | 205° |
| 2026-04-30 21:50 | -14.17880 | -37.85433 | 39988 ft | 481 kts | 205° |
| 2026-04-30 21:51 | -14.23820 | -37.88630 | 39997 ft | 482 kts | 205° |
| 2026-04-30 21:51 | -14.29757 | -37.91826 | 39988 ft | 481 kts | 205° |
| 2026-04-30 21:52 | -14.35694 | -37.95025 | 39998 ft | 481 kts | 205° |
| 2026-04-30 21:52 | -14.41633 | -37.98226 | 39988 ft | 482 kts | 205° |
| 2026-04-30 21:53 | -14.47570 | -38.01429 | 39987 ft | 482 kts | 206° |
| 2026-04-30 21:53 | -14.53510 | -38.04635 | 39991 ft | 482 kts | 206° |
| 2026-04-30 21:54 | -14.59448 | -38.07842 | 39996 ft | 482 kts | 206° |
| 2026-04-30 21:54 | -14.65387 | -38.11051 | 40001 ft | 482 kts | 206° |
| 2026-04-30 21:55 | -14.71323 | -38.14261 | 39995 ft | 482 kts | 206° |
| 2026-04-30 21:55 | -14.77263 | -38.17475 | 39998 ft | 482 kts | 206° |
| 2026-04-30 21:56 | -14.83198 | -38.20688 | 40002 ft | 482 kts | 206° |
| 2026-04-30 21:56 | -14.89136 | -38.23905 | 40006 ft | 482 kts | 206° |
| 2026-04-30 21:57 | -14.95037 | -38.27104 | 40007 ft | 482 kts | 206° |
| 2026-04-30 21:57 | -15.00976 | -38.30325 | 40001 ft | 482 kts | 206° |
| 2026-04-30 21:58 | -15.06921 | -38.33548 | 40002 ft | 482 kts | 206° |
| 2026-04-30 21:58 | -15.12857 | -38.36775 | 40002 ft | 482 kts | 206° |
| 2026-04-30 21:59 | -15.18795 | -38.40005 | 40001 ft | 482 kts | 206° |
| 2026-04-30 22:00 | -15.27698 | -38.44849 | 40010 ft | 482 kts | 206° |
| 2026-04-30 22:00 | -15.36610 | -38.49703 | 40003 ft | 482 kts | 206° |
| 2026-04-30 22:01 | -15.42550 | -38.52940 | 40003 ft | 482 kts | 206° |
| 2026-04-30 22:01 | -15.48491 | -38.56180 | 40014 ft | 482 kts | 206° |
| 2026-04-30 22:02 | -15.54418 | -38.59415 | 40015 ft | 481 kts | 206° |
| 2026-04-30 22:02 | -15.60343 | -38.62651 | 40017 ft | 481 kts | 206° |
| 2026-04-30 22:03 | -15.66228 | -38.65866 | 40017 ft | 481 kts | 206° |
| 2026-04-30 22:03 | -15.72155 | -38.69107 | 40013 ft | 481 kts | 206° |
| 2026-04-30 22:04 | -15.78071 | -38.72345 | 40018 ft | 480 kts | 206° |
| 2026-04-30 22:05 | -15.86937 | -38.77198 | 40018 ft | 480 kts | 206° |
| 2026-04-30 22:05 | -15.91888 | -38.79909 | 40015 ft | 480 kts | 206° |
| 2026-04-30 22:06 | -15.98752 | -38.83676 | 40015 ft | 480 kts | 206° |
| 2026-04-30 22:06 | -16.06612 | -38.87992 | 40023 ft | 480 kts | 206° |
| 2026-04-30 22:07 | -16.12515 | -38.91234 | 40023 ft | 480 kts | 206° |
| 2026-04-30 22:07 | -16.18417 | -38.94479 | 40018 ft | 480 kts | 206° |
| 2026-04-30 22:08 | -16.24317 | -38.97723 | 40022 ft | 479 kts | 207° |
| 2026-04-30 22:08 | -16.30247 | -39.00896 | 40025 ft | 479 kts | 206° |
| 2026-04-30 22:09 | -16.36198 | -39.04022 | 40019 ft | 479 kts | 206° |
| 2026-04-30 22:09 | -16.42145 | -39.07157 | 40012 ft | 479 kts | 206° |
| 2026-04-30 22:10 | -16.48066 | -39.10345 | 40018 ft | 479 kts | 207° |
| 2026-04-30 22:10 | -16.53921 | -39.13651 | 40022 ft | 478 kts | 207° |
| 2026-04-30 22:11 | -16.62671 | -39.18613 | 40020 ft | 477 kts | 207° |
| 2026-04-30 22:12 | -16.68511 | -39.21902 | 40027 ft | 477 kts | 207° |
| 2026-04-30 22:12 | -16.74356 | -39.25190 | 40025 ft | 477 kts | 207° |
| 2026-04-30 22:13 | -16.80203 | -39.28481 | 40023 ft | 477 kts | 207° |
| 2026-04-30 22:13 | -16.86048 | -39.31774 | 40024 ft | 477 kts | 207° |
| 2026-04-30 22:14 | -16.91848 | -39.35045 | 40019 ft | 477 kts | 207° |
| 2026-04-30 22:14 | -16.97689 | -39.38340 | 40032 ft | 476 kts | 207° |
| 2026-04-30 22:15 | -17.03515 | -39.41630 | 40026 ft | 476 kts | 207° |
| 2026-04-30 22:15 | -17.09341 | -39.44928 | 40026 ft | 476 kts | 207° |
| 2026-04-30 22:16 | -17.15165 | -39.48218 | 40028 ft | 476 kts | 207° |
| 2026-04-30 22:17 | -17.26818 | -39.54812 | 40022 ft | 476 kts | 208° |
| 2026-04-30 22:17 | -17.35557 | -39.59765 | 40027 ft | 476 kts | 208° |
| 2026-04-30 22:18 | -17.44273 | -39.64711 | 40026 ft | 475 kts | 208° |
| 2026-04-30 22:19 | -17.52992 | -39.69664 | 40019 ft | 475 kts | 208° |
| 2026-04-30 22:20 | -17.61711 | -39.74622 | 40022 ft | 475 kts | 208° |
| 2026-04-30 22:20 | -17.70423 | -39.79582 | 40019 ft | 475 kts | 208° |
| 2026-04-30 22:21 | -17.76192 | -39.82869 | 40023 ft | 474 kts | 208° |
| 2026-04-30 22:21 | -17.81998 | -39.86180 | 40020 ft | 475 kts | 208° |
| 2026-04-30 22:22 | -17.87797 | -39.89490 | 40023 ft | 475 kts | 208° |
| 2026-04-30 22:22 | -17.93600 | -39.92804 | 40021 ft | 474 kts | 208° |
| 2026-04-30 22:23 | -17.99400 | -39.96118 | 40017 ft | 475 kts | 208° |
| 2026-04-30 22:23 | -18.05199 | -39.99431 | 40023 ft | 474 kts | 208° |
| 2026-04-30 22:24 | -18.11011 | -40.02721 | 40018 ft | 475 kts | 208° |
| 2026-04-30 22:24 | -18.16823 | -40.06013 | 40022 ft | 475 kts | 208° |
| 2026-04-30 22:25 | -18.22639 | -40.09315 | 40021 ft | 475 kts | 208° |
| 2026-04-30 22:25 | -18.28449 | -40.12619 | 40020 ft | 475 kts | 208° |
| 2026-04-30 22:26 | -18.37160 | -40.17578 | 40016 ft | 474 kts | 209° |
| 2026-04-30 22:27 | -18.42957 | -40.20881 | 40018 ft | 473 kts | 209° |
| 2026-04-30 22:27 | -18.51640 | -40.25834 | 40018 ft | 473 kts | 209° |
| 2026-04-30 22:28 | -18.60283 | -40.30768 | 40017 ft | 473 kts | 209° |
| 2026-04-30 22:29 | -18.71856 | -40.37386 | 40026 ft | 473 kts | 209° |
| 2026-04-30 22:31 | -18.92084 | -40.48977 | 40020 ft | 473 kts | 209° |
| 2026-04-30 22:32 | -19.06527 | -40.57272 | 40026 ft | 472 kts | 210° |
| 2026-04-30 22:33 | -19.20915 | -40.65554 | 40025 ft | 472 kts | 210° |
| 2026-04-30 22:35 | -19.35324 | -40.73863 | 40022 ft | 471 kts | 210° |
| 2026-04-30 22:36 | -19.49705 | -40.82174 | 40025 ft | 471 kts | 210° |
| 2026-04-30 22:37 | -19.61196 | -40.88833 | 40026 ft | 470 kts | 210° |
| 2026-04-30 22:38 | -19.72679 | -40.95510 | 40028 ft | 471 kts | 210° |
| 2026-04-30 22:39 | -19.81289 | -41.00524 | 40037 ft | 471 kts | 210° |
| 2026-04-30 22:40 | -19.98482 | -41.10598 | 40043 ft | 470 kts | 210° |
| 2026-04-30 22:41 | -20.12747 | -41.18990 | 40047 ft | 470 kts | 211° |
| 2026-04-30 22:43 | -20.29890 | -41.29102 | 40056 ft | 469 kts | 211° |
| 2026-04-30 22:44 | -20.41317 | -41.35851 | 40052 ft | 469 kts | 211° |
| 2026-04-30 22:45 | -20.58451 | -41.45967 | 40049 ft | 469 kts | 211° |
| 2026-04-30 22:47 | -20.75583 | -41.56037 | 40053 ft | 468 kts | 211° |
| 2026-04-30 22:48 | -20.86982 | -41.62757 | 40046 ft | 468 kts | 211° |
| 2026-04-30 22:49 | -21.04061 | -41.72855 | 40028 ft | 467 kts | 211° |
| 2026-04-30 22:51 | -21.21064 | -41.82933 | 40016 ft | 466 kts | 212° |
| 2026-04-30 22:52 | -21.29570 | -41.87990 | 40007 ft | 465 kts | 211° |
| 2026-04-30 22:52 | -21.35224 | -41.91352 | 39886 ft | 461 kts | 211° |
| 2026-04-30 22:53 | -21.40841 | -41.94695 | 38464 ft | 465 kts | 211° |
| 2026-04-30 22:53 | -21.46535 | -41.98087 | 36643 ft | 472 kts | 211° |
| 2026-04-30 22:53 | -21.49424 | -41.99810 | 35710 ft | 477 kts | 211° |
| 2026-04-30 22:54 | -21.55283 | -42.03311 | 33909 ft | 486 kts | 212° |
| 2026-04-30 22:55 | -21.64246 | -42.08676 | 31561 ft | 494 kts | 212° |
| 2026-04-30 22:55 | -21.69234 | -42.11666 | 31164 ft | 493 kts | 212° |
| 2026-04-30 22:56 | -21.76172 | -42.15821 | 30608 ft | 489 kts | 212° |
| 2026-04-30 22:56 | -21.83875 | -42.20931 | 30340 ft | 483 kts | 222° |
| 2026-04-30 22:57 | -21.88371 | -42.26206 | 30352 ft | 477 kts | 238° |
| 2026-04-30 22:57 | -21.91202 | -42.32599 | 30051 ft | 472 kts | 251° |
| 2026-04-30 22:58 | -21.93367 | -42.39213 | 29523 ft | 470 kts | 252° |
| 2026-04-30 22:59 | -21.96607 | -42.49133 | 28765 ft | 465 kts | 252° |
| 2026-04-30 22:59 | -21.99803 | -42.58910 | 27992 ft | 458 kts | 252° |
| 2026-05-01 07:23 | 7.60167 | -27.28362 | 35947 ft | 487 kts | 206° |
| 2026-05-01 07:24 | 7.50914 | -27.32589 | 35947 ft | 487 kts | 206° |
| 2026-05-01 07:24 | 7.44750 | -27.35405 | 35947 ft | 487 kts | 206° |
| 2026-05-01 07:25 | 7.38578 | -27.38222 | 35937 ft | 487 kts | 206° |
| 2026-05-01 07:25 | 7.32412 | -27.41037 | 35939 ft | 487 kts | 206° |
| 2026-05-01 07:26 | 7.26245 | -27.43851 | 35941 ft | 487 kts | 206° |
| 2026-05-01 07:26 | 7.20074 | -27.46666 | 35938 ft | 487 kts | 206° |
| 2026-05-01 07:27 | 7.13904 | -27.49480 | 35939 ft | 487 kts | 206° |
| 2026-05-01 07:27 | 7.07736 | -27.52292 | 35938 ft | 487 kts | 206° |
| 2026-05-01 07:28 | 7.01563 | -27.55106 | 35940 ft | 487 kts | 206° |
| 2026-05-01 07:28 | 6.95388 | -27.57919 | 35939 ft | 487 kts | 206° |
| 2026-05-01 07:29 | 6.89213 | -27.60732 | 35939 ft | 487 kts | 206° |
| 2026-05-01 07:29 | 6.83080 | -27.63526 | 35936 ft | 487 kts | 206° |
| 2026-05-01 07:30 | 6.76904 | -27.66338 | 35937 ft | 487 kts | 206° |
| 2026-05-01 07:30 | 6.70731 | -27.69147 | 35932 ft | 487 kts | 206° |
| 2026-05-01 07:31 | 6.64554 | -27.71958 | 35931 ft | 487 kts | 206° |
| 2026-05-01 07:32 | 6.49117 | -27.78979 | 35933 ft | 487 kts | 206° |
| 2026-05-01 07:33 | 6.39849 | -27.83192 | 35931 ft | 487 kts | 206° |
| 2026-05-01 07:33 | 6.30584 | -27.87403 | 35930 ft | 487 kts | 206° |
| 2026-05-01 07:34 | 6.21325 | -27.91608 | 35930 ft | 487 kts | 206° |
| 2026-05-01 07:35 | 6.15144 | -27.94415 | 35928 ft | 487 kts | 206° |
| 2026-05-01 07:35 | 6.08966 | -27.97220 | 35927 ft | 487 kts | 206° |
| 2026-05-01 07:36 | 6.02788 | -28.00024 | 35927 ft | 487 kts | 206° |
| 2026-05-01 07:36 | 5.96606 | -28.02829 | 35928 ft | 487 kts | 206° |
| 2026-05-01 07:37 | 5.87336 | -28.07034 | 35925 ft | 487 kts | 206° |
| 2026-05-01 07:37 | 5.81153 | -28.09838 | 35922 ft | 487 kts | 207° |
| 2026-05-01 07:38 | 5.74967 | -28.12642 | 35925 ft | 487 kts | 207° |
| 2026-05-01 07:39 | 5.65696 | -28.16844 | 35922 ft | 488 kts | 206° |
| 2026-05-01 07:39 | 5.56411 | -28.21051 | 35919 ft | 488 kts | 206° |
| 2026-05-01 07:40 | 5.50228 | -28.23852 | 35920 ft | 488 kts | 206° |
| 2026-05-01 07:40 | 5.44083 | -28.26634 | 35919 ft | 488 kts | 206° |
| 2026-05-01 07:41 | 5.37896 | -28.29435 | 35919 ft | 488 kts | 206° |
| 2026-05-01 07:42 | 5.28610 | -28.33638 | 35914 ft | 489 kts | 207° |
| 2026-05-01 07:42 | 5.22409 | -28.36444 | 35914 ft | 489 kts | 207° |
| 2026-05-01 07:43 | 5.16209 | -28.39248 | 35915 ft | 489 kts | 207° |
| 2026-05-01 07:43 | 5.06910 | -28.43454 | 35914 ft | 489 kts | 207° |
| 2026-05-01 07:44 | 4.94511 | -28.49059 | 35911 ft | 489 kts | 206° |
| 2026-05-01 07:45 | 4.88310 | -28.51862 | 35911 ft | 489 kts | 206° |
| 2026-05-01 07:45 | 4.82109 | -28.54663 | 35914 ft | 489 kts | 206° |
| 2026-05-01 07:46 | 4.75913 | -28.57462 | 35908 ft | 489 kts | 206° |
| 2026-05-01 07:47 | 4.66616 | -28.61662 | 35910 ft | 489 kts | 206° |
| 2026-05-01 07:47 | 4.60414 | -28.64462 | 35911 ft | 489 kts | 206° |
| 2026-05-01 07:48 | 4.51109 | -28.68662 | 35909 ft | 490 kts | 206° |
| 2026-05-01 07:48 | 4.44895 | -28.71467 | 35908 ft | 490 kts | 206° |
| 2026-05-01 07:49 | 4.35576 | -28.75672 | 35906 ft | 490 kts | 206° |
| 2026-05-01 07:50 | 4.29362 | -28.78476 | 35907 ft | 490 kts | 206° |
| 2026-05-01 07:50 | 4.20044 | -28.82678 | 35908 ft | 490 kts | 206° |
| 2026-05-01 07:51 | 4.13870 | -28.85462 | 35906 ft | 489 kts | 206° |
| 2026-05-01 07:52 | 4.04550 | -28.89664 | 35905 ft | 490 kts | 206° |
| 2026-05-01 07:52 | 3.98293 | -28.92484 | 35904 ft | 490 kts | 205° |
| 2026-05-01 07:53 | 3.89017 | -28.96664 | 35906 ft | 489 kts | 206° |
| 2026-05-01 07:53 | 3.82804 | -28.99462 | 35906 ft | 489 kts | 206° |
| 2026-05-01 07:55 | 3.68272 | -29.06008 | 35902 ft | 490 kts | 206° |
| 2026-05-01 07:56 | 3.52735 | -29.13004 | 35903 ft | 490 kts | 205° |
| 2026-05-01 07:57 | 3.43454 | -29.17181 | 35902 ft | 490 kts | 206° |
| 2026-05-01 07:58 | 3.31026 | -29.22775 | 35895 ft | 490 kts | 205° |
| 2026-05-01 07:59 | 3.18600 | -29.28364 | 35896 ft | 489 kts | 205° |
| 2026-05-01 08:00 | 2.99974 | -29.36739 | 35897 ft | 489 kts | 205° |
| 2026-05-01 08:01 | 2.87558 | -29.42321 | 35897 ft | 489 kts | 205° |
| 2026-05-01 08:02 | 2.78246 | -29.46507 | 35892 ft | 489 kts | 205° |
| 2026-05-01 08:03 | 2.68929 | -29.50694 | 35894 ft | 489 kts | 205° |
| 2026-05-01 08:03 | 2.59661 | -29.54859 | 35894 ft | 488 kts | 205° |
| 2026-05-01 08:04 | 2.47254 | -29.60432 | 35896 ft | 489 kts | 205° |
| 2026-05-01 08:05 | 2.37947 | -29.64612 | 35895 ft | 489 kts | 205° |
| 2026-05-01 08:06 | 2.28637 | -29.68793 | 35893 ft | 489 kts | 205° |
| 2026-05-01 08:07 | 2.16239 | -29.74360 | 35894 ft | 488 kts | 205° |
| 2026-05-01 08:08 | 2.06940 | -29.78535 | 35896 ft | 489 kts | 205° |
| 2026-05-01 08:09 | 1.94574 | -29.84085 | 35892 ft | 488 kts | 205° |
| 2026-05-01 08:09 | 1.88377 | -29.86867 | 35894 ft | 489 kts | 205° |
| 2026-05-01 08:10 | 1.75976 | -29.92432 | 35887 ft | 488 kts | 205° |
| 2026-05-01 08:11 | 1.63569 | -29.97999 | 35891 ft | 489 kts | 205° |
| 2026-05-01 08:12 | 1.54266 | -30.02174 | 35894 ft | 489 kts | 205° |
| 2026-05-01 08:13 | 1.44957 | -30.06349 | 35884 ft | 489 kts | 205° |
| 2026-05-01 08:13 | 1.35649 | -30.10525 | 35888 ft | 488 kts | 205° |
| 2026-05-01 08:14 | 1.29441 | -30.13309 | 35889 ft | 489 kts | 205° |
| 2026-05-01 08:14 | 1.23230 | -30.16095 | 35891 ft | 489 kts | 205° |
| 2026-05-01 08:15 | 1.13918 | -30.20271 | 35889 ft | 489 kts | 205° |
| 2026-05-01 08:16 | 1.07710 | -30.23055 | 35885 ft | 489 kts | 205° |
| 2026-05-01 08:16 | 1.01503 | -30.25839 | 35884 ft | 489 kts | 205° |
| 2026-05-01 08:17 | 0.95292 | -30.28625 | 35887 ft | 488 kts | 205° |
| 2026-05-01 08:17 | 0.89093 | -30.31404 | 35889 ft | 488 kts | 205° |
| 2026-05-01 08:18 | 0.82906 | -30.34178 | 35885 ft | 488 kts | 205° |
| 2026-05-01 08:19 | 0.70509 | -30.39737 | 35885 ft | 488 kts | 205° |
| 2026-05-01 08:19 | 0.64310 | -30.42516 | 35890 ft | 488 kts | 205° |
| 2026-05-01 08:20 | 0.58118 | -30.45292 | 35891 ft | 488 kts | 205° |
| 2026-05-01 08:20 | 0.51966 | -30.48050 | 35885 ft | 488 kts | 205° |
| 2026-05-01 08:21 | 0.45768 | -30.50829 | 35884 ft | 488 kts | 205° |
| 2026-05-01 08:21 | 0.39571 | -30.53607 | 35887 ft | 488 kts | 205° |
| 2026-05-01 08:22 | 0.33380 | -30.56384 | 35887 ft | 488 kts | 205° |
| 2026-05-01 08:22 | 0.27186 | -30.59159 | 35888 ft | 487 kts | 205° |
| 2026-05-01 08:23 | 0.21000 | -30.61931 | 35886 ft | 487 kts | 205° |
| 2026-05-01 08:23 | 0.14815 | -30.64704 | 35885 ft | 487 kts | 205° |
| 2026-05-01 08:24 | 0.08632 | -30.67475 | 35883 ft | 487 kts | 205° |
| 2026-05-01 08:24 | 0.02450 | -30.70246 | 35882 ft | 487 kts | 205° |
| 2026-05-01 08:25 | -0.03744 | -30.73023 | 35886 ft | 488 kts | 205° |
| 2026-05-01 08:25 | -0.09930 | -30.75795 | 35882 ft | 488 kts | 205° |
| 2026-05-01 08:26 | -0.16119 | -30.78569 | 35886 ft | 487 kts | 205° |
| 2026-05-01 08:26 | -0.22304 | -30.81342 | 35886 ft | 487 kts | 205° |
| 2026-05-01 08:27 | -0.28489 | -30.84114 | 35887 ft | 487 kts | 205° |
| 2026-05-01 08:27 | -0.34677 | -30.86887 | 35886 ft | 488 kts | 205° |
| 2026-05-01 08:28 | -0.40863 | -30.89660 | 35883 ft | 487 kts | 205° |
| 2026-05-01 08:28 | -0.47048 | -30.92433 | 35884 ft | 487 kts | 205° |
| 2026-05-01 08:29 | -0.53235 | -30.95206 | 35882 ft | 487 kts | 205° |
| 2026-05-01 08:29 | -0.59421 | -30.97980 | 35883 ft | 488 kts | 205° |
| 2026-05-01 08:30 | -0.65617 | -31.00757 | 35883 ft | 488 kts | 205° |
| 2026-05-01 08:30 | -0.71816 | -31.03536 | 35884 ft | 488 kts | 205° |
| 2026-05-01 08:31 | -0.78019 | -31.06317 | 35884 ft | 488 kts | 205° |
| 2026-05-01 08:31 | -0.84218 | -31.09096 | 35883 ft | 489 kts | 205° |
| 2026-05-01 08:32 | -0.90460 | -31.11779 | 35880 ft | 489 kts | 203° |
| 2026-05-01 08:32 | -0.96736 | -31.14403 | 35883 ft | 488 kts | 203° |
| 2026-05-01 08:33 | -1.03006 | -31.17036 | 35885 ft | 490 kts | 204° |
| 2026-05-01 08:33 | -1.09282 | -31.19690 | 35887 ft | 490 kts | 204° |
| 2026-05-01 08:34 | -1.15513 | -31.22331 | 35882 ft | 490 kts | 204° |
| 2026-05-01 08:34 | -1.21792 | -31.24993 | 35883 ft | 490 kts | 204° |
| 2026-05-01 08:35 | -1.28066 | -31.27653 | 35884 ft | 490 kts | 204° |
| 2026-05-01 08:35 | -1.34344 | -31.30314 | 35882 ft | 490 kts | 203° |
| 2026-05-01 08:36 | -1.40627 | -31.32977 | 35884 ft | 490 kts | 204° |
| 2026-05-01 08:36 | -1.46910 | -31.35640 | 35886 ft | 490 kts | 204° |
| 2026-05-01 08:37 | -1.53191 | -31.38303 | 35881 ft | 491 kts | 203° |
| 2026-05-01 08:37 | -1.59472 | -31.40965 | 35883 ft | 490 kts | 203° |
| 2026-05-01 08:38 | -1.65754 | -31.43629 | 35884 ft | 490 kts | 203° |
| 2026-05-01 08:38 | -1.72040 | -31.46294 | 35884 ft | 491 kts | 204° |
| 2026-05-01 08:39 | -1.78321 | -31.48957 | 35884 ft | 491 kts | 204° |
| 2026-05-01 08:39 | -1.84605 | -31.51622 | 35883 ft | 490 kts | 203° |
| 2026-05-01 08:40 | -1.94048 | -31.55627 | 35885 ft | 493 kts | 203° |
| 2026-05-01 08:40 | -2.00316 | -31.58285 | 35885 ft | 492 kts | 203° |
| 2026-05-01 08:41 | -2.06616 | -31.60957 | 35888 ft | 492 kts | 203° |
| 2026-05-01 08:41 | -2.11889 | -31.63194 | 35886 ft | 492 kts | 203° |
| 2026-05-01 08:42 | -2.19215 | -31.66302 | 35883 ft | 492 kts | 203° |
| 2026-05-01 08:42 | -2.24497 | -31.68543 | 35884 ft | 492 kts | 203° |
| 2026-05-01 08:43 | -2.30794 | -31.71215 | 35884 ft | 491 kts | 203° |
| 2026-05-01 08:43 | -2.37074 | -31.73880 | 35882 ft | 490 kts | 203° |
| 2026-05-01 08:44 | -2.43355 | -31.76546 | 35882 ft | 490 kts | 203° |
| 2026-05-01 08:44 | -2.49591 | -31.79192 | 35884 ft | 490 kts | 203° |
| 2026-05-01 08:45 | -2.55873 | -31.81859 | 35886 ft | 490 kts | 203° |
| 2026-05-01 08:45 | -2.62153 | -31.84525 | 35886 ft | 490 kts | 203° |
| 2026-05-01 08:46 | -2.68446 | -31.87197 | 35885 ft | 491 kts | 203° |
| 2026-05-01 08:46 | -2.74742 | -31.89870 | 35884 ft | 492 kts | 203° |
| 2026-05-01 08:47 | -2.81037 | -31.92544 | 35883 ft | 492 kts | 203° |
| 2026-05-01 08:47 | -2.87335 | -31.95219 | 35883 ft | 491 kts | 203° |
| 2026-05-01 08:48 | -2.93633 | -31.97894 | 35886 ft | 491 kts | 203° |
| 2026-05-01 08:48 | -2.99912 | -32.00561 | 35882 ft | 491 kts | 203° |
| 2026-05-01 08:49 | -3.06188 | -32.03228 | 35881 ft | 489 kts | 203° |
| 2026-05-01 08:49 | -3.12461 | -32.05893 | 35883 ft | 489 kts | 203° |
| 2026-05-01 08:50 | -3.18730 | -32.08558 | 35886 ft | 490 kts | 203° |
| 2026-05-01 08:50 | -3.24957 | -32.11205 | 35887 ft | 490 kts | 204° |
| 2026-05-01 08:51 | -3.31172 | -32.13997 | 35882 ft | 488 kts | 208° |
| 2026-05-01 08:51 | -3.37161 | -32.17229 | 35887 ft | 489 kts | 210° |
| 2026-05-01 08:52 | -3.43116 | -32.20507 | 35879 ft | 489 kts | 209° |
| 2026-05-01 08:52 | -3.49107 | -32.23723 | 35880 ft | 489 kts | 208° |
| 2026-05-01 08:53 | -3.55127 | -32.26904 | 35886 ft | 489 kts | 208° |
| 2026-05-01 08:53 | -3.61149 | -32.30076 | 35888 ft | 489 kts | 208° |
| 2026-05-01 08:54 | -3.67169 | -32.33250 | 35882 ft | 489 kts | 208° |
| 2026-05-01 08:54 | -3.73184 | -32.36425 | 35882 ft | 489 kts | 208° |
| 2026-05-01 08:55 | -3.79213 | -32.39609 | 35882 ft | 489 kts | 208° |
| 2026-05-01 08:55 | -3.85240 | -32.42792 | 35890 ft | 490 kts | 208° |
| 2026-05-01 08:56 | -3.91242 | -32.45921 | 35888 ft | 490 kts | 208° |
| 2026-05-01 08:56 | -3.97312 | -32.49026 | 35882 ft | 490 kts | 208° |
| 2026-05-01 08:57 | -4.03383 | -32.52134 | 35882 ft | 490 kts | 208° |
| 2026-05-01 08:57 | -4.09455 | -32.55255 | 35891 ft | 490 kts | 208° |
| 2026-05-01 08:58 | -4.15516 | -32.58374 | 35892 ft | 490 kts | 208° |
| 2026-05-01 08:58 | -4.21581 | -32.61497 | 35888 ft | 490 kts | 208° |
| 2026-05-01 08:59 | -4.27673 | -32.64634 | 35889 ft | 491 kts | 208° |
| 2026-05-01 08:59 | -4.33754 | -32.67766 | 35892 ft | 492 kts | 208° |
| 2026-05-01 09:00 | -4.39832 | -32.70897 | 35886 ft | 491 kts | 208° |
| 2026-05-01 09:00 | -4.45908 | -32.74027 | 36019 ft | 492 kts | 208° |
| 2026-05-01 09:01 | -4.48943 | -32.75591 | 36211 ft | 492 kts | 208° |
| 2026-05-01 09:01 | -4.52001 | -32.77166 | 36490 ft | 491 kts | 208° |
| 2026-05-01 09:01 | -4.55037 | -32.78731 | 36710 ft | 491 kts | 208° |
| 2026-05-01 09:01 | -4.58079 | -32.80299 | 36913 ft | 491 kts | 208° |
| 2026-05-01 09:02 | -4.61108 | -32.81861 | 37218 ft | 489 kts | 208° |
| 2026-05-01 09:02 | -4.64137 | -32.83423 | 37406 ft | 490 kts | 208° |
| 2026-05-01 09:02 | -4.67164 | -32.84978 | 37612 ft | 489 kts | 208° |
| 2026-05-01 09:02 | -4.70189 | -32.86529 | 37880 ft | 488 kts | 208° |
| 2026-05-01 09:03 | -4.73174 | -32.88060 | 38000 ft | 489 kts | 208° |
| 2026-05-01 09:03 | -4.76199 | -32.89612 | 38222 ft | 488 kts | 208° |
| 2026-05-01 09:03 | -4.79219 | -32.91163 | 38430 ft | 488 kts | 208° |
| 2026-05-01 09:03 | -4.82246 | -32.92718 | 38547 ft | 489 kts | 208° |
| 2026-05-01 09:04 | -4.85268 | -32.94271 | 38726 ft | 488 kts | 208° |
| 2026-05-01 09:04 | -4.88286 | -32.95823 | 38887 ft | 487 kts | 208° |
| 2026-05-01 09:04 | -4.91302 | -32.97374 | 39026 ft | 487 kts | 208° |
| 2026-05-01 09:04 | -4.94310 | -32.98921 | 39211 ft | 486 kts | 208° |
| 2026-05-01 09:05 | -4.97318 | -33.00468 | 39336 ft | 486 kts | 208° |
| 2026-05-01 09:05 | -5.00322 | -33.02013 | 39464 ft | 485 kts | 208° |
| 2026-05-01 09:05 | -5.03319 | -33.03554 | 39653 ft | 484 kts | 208° |
| 2026-05-01 09:05 | -5.06317 | -33.05096 | 39757 ft | 484 kts | 209° |
| 2026-05-01 09:06 | -5.09312 | -33.06637 | 39872 ft | 484 kts | 209° |
| 2026-05-01 09:06 | -5.12308 | -33.08179 | 39896 ft | 484 kts | 208° |
| 2026-05-01 09:06 | -5.18310 | -33.11268 | 39885 ft | 485 kts | 208° |
| 2026-05-01 09:07 | -5.24318 | -33.14361 | 39885 ft | 485 kts | 209° |
| 2026-05-01 09:07 | -5.30326 | -33.17454 | 39891 ft | 486 kts | 208° |
| 2026-05-01 09:08 | -5.36343 | -33.20552 | 39887 ft | 486 kts | 209° |
| 2026-05-01 09:08 | -5.42359 | -33.23650 | 39906 ft | 486 kts | 209° |
| 2026-05-01 09:09 | -5.48385 | -33.26756 | 39904 ft | 488 kts | 208° |
| 2026-05-01 09:09 | -5.54424 | -33.29869 | 39887 ft | 488 kts | 208° |
| 2026-05-01 09:10 | -5.60466 | -33.32984 | 39897 ft | 488 kts | 208° |
| 2026-05-01 09:10 | -5.66506 | -33.36098 | 39895 ft | 488 kts | 209° |
| 2026-05-01 09:11 | -5.72544 | -33.39212 | 39894 ft | 488 kts | 209° |
| 2026-05-01 09:11 | -5.78590 | -33.42330 | 39907 ft | 489 kts | 209° |
| 2026-05-01 09:12 | -5.84653 | -33.45457 | 39904 ft | 490 kts | 209° |
| 2026-05-01 09:12 | -5.90725 | -33.48591 | 39904 ft | 491 kts | 209° |
| 2026-05-01 09:13 | -5.96798 | -33.51725 | 39901 ft | 491 kts | 209° |
| 2026-05-01 09:13 | -6.02868 | -33.54859 | 39903 ft | 491 kts | 209° |
| 2026-05-01 09:14 | -6.08944 | -33.57997 | 39896 ft | 491 kts | 209° |
| 2026-05-01 09:14 | -6.15022 | -33.61137 | 39896 ft | 491 kts | 209° |
| 2026-05-01 09:15 | -6.21074 | -33.64264 | 39912 ft | 491 kts | 209° |
| 2026-05-01 09:15 | -6.27153 | -33.67405 | 39901 ft | 491 kts | 209° |
| 2026-05-01 09:16 | -6.33233 | -33.70549 | 39900 ft | 491 kts | 210° |
| 2026-05-01 09:17 | -6.42345 | -33.75261 | 39898 ft | 491 kts | 210° |
| 2026-05-01 09:17 | -6.51455 | -33.79975 | 39897 ft | 491 kts | 210° |
| 2026-05-01 09:18 | -6.60567 | -33.84691 | 39901 ft | 491 kts | 209° |
| 2026-05-01 09:19 | -6.69680 | -33.89410 | 39901 ft | 491 kts | 209° |
| 2026-05-01 09:20 | -6.78792 | -33.94130 | 39900 ft | 491 kts | 210° |
| 2026-05-01 09:21 | -6.90940 | -34.00426 | 39904 ft | 491 kts | 209° |
| 2026-05-01 09:21 | -7.00003 | -34.05126 | 39904 ft | 490 kts | 210° |
| 2026-05-01 09:22 | -7.12128 | -34.11416 | 39900 ft | 490 kts | 210° |
| 2026-05-01 09:23 | -7.21219 | -34.16135 | 39903 ft | 490 kts | 209° |
| 2026-05-01 09:24 | -7.30301 | -34.20851 | 39902 ft | 489 kts | 209° |
| 2026-05-01 09:25 | -7.42389 | -34.27132 | 39903 ft | 488 kts | 209° |
| 2026-05-01 09:26 | -7.51451 | -34.31843 | 39899 ft | 488 kts | 209° |
| 2026-05-01 09:26 | -7.60509 | -34.36555 | 39905 ft | 488 kts | 209° |
| 2026-05-01 09:27 | -7.69561 | -34.41265 | 39908 ft | 488 kts | 209° |
| 2026-05-01 09:28 | -7.75593 | -34.44405 | 39908 ft | 488 kts | 209° |
| 2026-05-01 09:28 | -7.81599 | -34.47593 | 39905 ft | 488 kts | 210° |
| 2026-05-01 09:29 | -7.89546 | -34.51918 | 39908 ft | 487 kts | 210° |
| 2026-05-01 09:30 | -7.98496 | -34.56772 | 39910 ft | 487 kts | 210° |
| 2026-05-01 09:30 | -8.08421 | -34.62138 | 39908 ft | 487 kts | 210° |
| 2026-05-01 09:31 | -8.13487 | -34.64727 | 39916 ft | 488 kts | 205° |
| 2026-05-01 09:32 | -8.22834 | -34.68697 | 39914 ft | 488 kts | 204° |
| 2026-05-01 09:32 | -8.32254 | -34.72587 | 39913 ft | 488 kts | 204° |
| 2026-05-01 09:33 | -8.38534 | -34.75188 | 39916 ft | 487 kts | 204° |
| 2026-05-01 09:34 | -8.47942 | -34.79094 | 39912 ft | 488 kts | 204° |
| 2026-05-01 09:34 | -8.57360 | -34.83008 | 39914 ft | 488 kts | 204° |
| 2026-05-01 09:35 | -8.66776 | -34.86924 | 39914 ft | 488 kts | 204° |
| 2026-05-01 09:36 | -8.73056 | -34.89536 | 39918 ft | 488 kts | 204° |
| 2026-05-01 09:36 | -8.79344 | -34.92152 | 39917 ft | 489 kts | 204° |
| 2026-05-01 09:37 | -8.85634 | -34.94770 | 39917 ft | 489 kts | 204° |
| 2026-05-01 09:37 | -8.95070 | -34.98700 | 39920 ft | 489 kts | 204° |
| 2026-05-01 09:38 | -9.04485 | -35.02654 | 39917 ft | 488 kts | 206° |
| 2026-05-01 09:39 | -9.13416 | -35.07571 | 39922 ft | 487 kts | 211° |
| 2026-05-01 09:39 | -9.19258 | -35.10960 | 39922 ft | 487 kts | 211° |
| 2026-05-01 09:40 | -9.28078 | -35.16084 | 39922 ft | 487 kts | 211° |
| 2026-05-01 09:41 | -9.33968 | -35.19497 | 39922 ft | 488 kts | 210° |
| 2026-05-01 09:41 | -9.42807 | -35.24613 | 39922 ft | 488 kts | 211° |
| 2026-05-01 09:42 | -9.48695 | -35.28023 | 39922 ft | 487 kts | 211° |
| 2026-05-01 09:43 | -9.60455 | -35.34839 | 39925 ft | 487 kts | 210° |
| 2026-05-01 09:43 | -9.66335 | -35.38249 | 39925 ft | 487 kts | 211° |
| 2026-05-01 09:44 | -9.75150 | -35.43363 | 39927 ft | 487 kts | 210° |
| 2026-05-01 09:45 | -9.81028 | -35.46776 | 39923 ft | 487 kts | 211° |
| 2026-05-01 09:45 | -9.89807 | -35.51876 | 39925 ft | 486 kts | 210° |
| 2026-05-01 09:46 | -9.95678 | -35.55288 | 39925 ft | 486 kts | 210° |
| 2026-05-01 09:46 | -10.01541 | -35.58696 | 39931 ft | 486 kts | 210° |
| 2026-05-01 09:47 | -10.07408 | -35.62108 | 39927 ft | 486 kts | 210° |
| 2026-05-01 09:47 | -10.13276 | -35.65523 | 39930 ft | 486 kts | 210° |
| 2026-05-01 09:48 | -10.19145 | -35.68940 | 39932 ft | 486 kts | 210° |
| 2026-05-01 09:48 | -10.25012 | -35.72356 | 39933 ft | 486 kts | 210° |
| 2026-05-01 09:49 | -10.30882 | -35.75776 | 39930 ft | 486 kts | 209° |
| 2026-05-01 09:49 | -10.36748 | -35.79196 | 39933 ft | 485 kts | 209° |
| 2026-05-01 09:50 | -10.42599 | -35.82608 | 39939 ft | 485 kts | 209° |
| 2026-05-01 09:50 | -10.48454 | -35.86024 | 39938 ft | 485 kts | 209° |
| 2026-05-01 09:51 | -10.54308 | -35.89440 | 39932 ft | 485 kts | 209° |
| 2026-05-01 09:51 | -10.60162 | -35.92858 | 39938 ft | 485 kts | 209° |
| 2026-05-01 09:52 | -10.66017 | -35.96278 | 39937 ft | 485 kts | 209° |
| 2026-05-01 09:52 | -10.71867 | -35.99699 | 39938 ft | 485 kts | 209° |
| 2026-05-01 09:53 | -10.77717 | -36.03119 | 39938 ft | 484 kts | 209° |
| 2026-05-01 09:53 | -10.83554 | -36.06533 | 39938 ft | 484 kts | 209° |
| 2026-05-01 09:54 | -10.89391 | -36.09949 | 39938 ft | 484 kts | 209° |
| 2026-05-01 09:54 | -10.95231 | -36.13367 | 39938 ft | 484 kts | 208° |
| 2026-05-01 09:55 | -11.01068 | -36.16787 | 39944 ft | 484 kts | 209° |
| 2026-05-01 09:55 | -11.06868 | -36.20187 | 39944 ft | 484 kts | 208° |
| 2026-05-01 09:56 | -11.12709 | -36.23612 | 39945 ft | 484 kts | 208° |
| 2026-05-01 09:56 | -11.18632 | -36.26873 | 39943 ft | 484 kts | 205° |
| 2026-05-01 09:57 | -11.24644 | -36.29945 | 39947 ft | 483 kts | 205° |
| 2026-05-01 09:57 | -11.30646 | -36.33028 | 39950 ft | 483 kts | 205° |
| 2026-05-01 09:58 | -11.36636 | -36.36150 | 39950 ft | 484 kts | 205° |
| 2026-05-01 09:58 | -11.42619 | -36.39290 | 39949 ft | 484 kts | 206° |
| 2026-05-01 09:59 | -11.48600 | -36.42432 | 39950 ft | 484 kts | 206° |
| 2026-05-01 09:59 | -11.54586 | -36.45577 | 39949 ft | 484 kts | 206° |
| 2026-05-01 10:00 | -11.60572 | -36.48722 | 39952 ft | 484 kts | 206° |
| 2026-05-01 10:00 | -11.66558 | -36.51869 | 39955 ft | 484 kts | 206° |
| 2026-05-01 10:01 | -11.72547 | -36.55018 | 39952 ft | 484 kts | 206° |
| 2026-05-01 10:01 | -11.78533 | -36.58168 | 39952 ft | 484 kts | 206° |
| 2026-05-01 10:02 | -11.84520 | -36.61320 | 39952 ft | 484 kts | 205° |
| 2026-05-01 10:02 | -11.90507 | -36.64473 | 39952 ft | 484 kts | 205° |
| 2026-05-01 10:03 | -11.96493 | -36.67627 | 39958 ft | 484 kts | 205° |
| 2026-05-01 10:03 | -12.02479 | -36.70783 | 39958 ft | 484 kts | 205° |
| 2026-05-01 10:04 | -12.08461 | -36.73938 | 39957 ft | 484 kts | 205° |
| 2026-05-01 10:04 | -12.14439 | -36.77093 | 39960 ft | 483 kts | 205° |
| 2026-05-01 10:05 | -12.20371 | -36.80226 | 39960 ft | 483 kts | 205° |
| 2026-05-01 10:05 | -12.26341 | -36.83379 | 39960 ft | 483 kts | 205° |
| 2026-05-01 10:06 | -12.32310 | -36.86534 | 39960 ft | 483 kts | 205° |
| 2026-05-01 10:06 | -12.38277 | -36.89690 | 39960 ft | 483 kts | 205° |
| 2026-05-01 10:07 | -12.44247 | -36.92848 | 39960 ft | 483 kts | 205° |
| 2026-05-01 10:07 | -12.50218 | -36.96009 | 39960 ft | 483 kts | 205° |
| 2026-05-01 10:08 | -12.59170 | -37.00751 | 39963 ft | 483 kts | 205° |
| 2026-05-01 10:09 | -12.65135 | -37.03914 | 39963 ft | 482 kts | 205° |
| 2026-05-01 10:09 | -12.71097 | -37.07075 | 39963 ft | 482 kts | 205° |
| 2026-05-01 10:10 | -12.77057 | -37.10238 | 39962 ft | 482 kts | 205° |
| 2026-05-01 10:10 | -12.85999 | -37.14986 | 39968 ft | 483 kts | 205° |
| 2026-05-01 10:11 | -12.91916 | -37.18131 | 39965 ft | 482 kts | 205° |
| 2026-05-01 10:11 | -12.97875 | -37.21299 | 39968 ft | 482 kts | 205° |
| 2026-05-01 10:12 | -13.02829 | -37.23933 | 39964 ft | 482 kts | 205° |
| 2026-05-01 10:13 | -13.12768 | -37.29224 | 39968 ft | 482 kts | 205° |
| 2026-05-01 10:13 | -13.18726 | -37.32398 | 39969 ft | 482 kts | 205° |
| 2026-05-01 10:14 | -13.27660 | -37.37160 | 39972 ft | 482 kts | 205° |
| 2026-05-01 10:14 | -13.33617 | -37.40338 | 39970 ft | 482 kts | 205° |
| 2026-05-01 10:15 | -13.39574 | -37.43517 | 39973 ft | 482 kts | 205° |
| 2026-05-01 10:15 | -13.45531 | -37.46698 | 39977 ft | 482 kts | 205° |
| 2026-05-01 10:16 | -13.51483 | -37.49879 | 39974 ft | 482 kts | 205° |
| 2026-05-01 10:17 | -13.60403 | -37.54648 | 39975 ft | 482 kts | 205° |
| 2026-05-01 10:17 | -13.69326 | -37.59424 | 39979 ft | 482 kts | 205° |
| 2026-05-01 10:18 | -13.78244 | -37.64201 | 39981 ft | 482 kts | 205° |
| 2026-05-01 10:19 | -13.84191 | -37.67388 | 39982 ft | 482 kts | 205° |
| 2026-05-01 10:19 | -13.89132 | -37.70038 | 39985 ft | 482 kts | 205° |
| 2026-05-01 10:20 | -13.98052 | -37.74825 | 39991 ft | 481 kts | 206° |
| 2026-05-01 10:20 | -14.03989 | -37.78013 | 39998 ft | 481 kts | 206° |
| 2026-05-01 10:21 | -14.12894 | -37.82799 | 39987 ft | 481 kts | 206° |
| 2026-05-01 10:22 | -14.21803 | -37.87591 | 39993 ft | 481 kts | 206° |
| 2026-05-01 10:23 | -14.30673 | -37.92367 | 39994 ft | 482 kts | 206° |
| 2026-05-01 10:23 | -14.39582 | -37.97168 | 39996 ft | 482 kts | 206° |
| 2026-05-01 10:24 | -14.51455 | -38.03572 | 39999 ft | 482 kts | 206° |
| 2026-05-01 10:25 | -14.63338 | -38.09991 | 39996 ft | 482 kts | 206° |
| 2026-05-01 10:26 | -14.69277 | -38.13201 | 39996 ft | 482 kts | 206° |
| 2026-05-01 10:27 | -14.81152 | -38.19627 | 40005 ft | 482 kts | 206° |
| 2026-05-01 10:28 | -14.90058 | -38.24452 | 39996 ft | 482 kts | 206° |
| 2026-05-01 10:28 | -14.98969 | -38.29283 | 40003 ft | 482 kts | 206° |
| 2026-05-01 10:29 | -15.07878 | -38.34121 | 40003 ft | 482 kts | 206° |
| 2026-05-01 10:30 | -15.19752 | -38.40574 | 40006 ft | 482 kts | 206° |
| 2026-05-01 10:31 | -15.31629 | -38.47037 | 39999 ft | 482 kts | 206° |
| 2026-05-01 10:32 | -15.40541 | -38.51892 | 40005 ft | 482 kts | 206° |
| 2026-05-01 10:33 | -15.52412 | -38.58367 | 40017 ft | 481 kts | 207° |
| 2026-05-01 10:34 | -15.61263 | -38.63200 | 40020 ft | 481 kts | 206° |
| 2026-05-01 10:34 | -15.67227 | -38.66459 | 40017 ft | 481 kts | 207° |
| 2026-05-01 10:35 | -15.76071 | -38.71297 | 40010 ft | 480 kts | 207° |
| 2026-05-01 10:35 | -15.81984 | -38.74534 | 40014 ft | 480 kts | 207° |
| 2026-05-01 10:36 | -15.90851 | -38.79393 | 40018 ft | 480 kts | 207° |
| 2026-05-01 10:37 | -15.96763 | -38.82634 | 40012 ft | 480 kts | 207° |
| 2026-05-01 10:37 | -16.05619 | -38.87494 | 40013 ft | 480 kts | 207° |
| 2026-05-01 10:38 | -16.11524 | -38.90738 | 40024 ft | 480 kts | 207° |
| 2026-05-01 10:38 | -16.17428 | -38.93982 | 40020 ft | 480 kts | 207° |
| 2026-05-01 10:39 | -16.23328 | -38.97227 | 40023 ft | 479 kts | 207° |
| 2026-05-01 10:39 | -16.29249 | -39.00417 | 40019 ft | 479 kts | 206° |
| 2026-05-01 10:40 | -16.35200 | -39.03544 | 40019 ft | 479 kts | 206° |
| 2026-05-01 10:40 | -16.41154 | -39.06681 | 40017 ft | 479 kts | 206° |
| 2026-05-01 10:41 | -16.47084 | -39.09845 | 40020 ft | 479 kts | 207° |
| 2026-05-01 10:42 | -16.55860 | -39.14800 | 40018 ft | 478 kts | 208° |
| 2026-05-01 10:42 | -16.61693 | -39.18108 | 40026 ft | 477 kts | 208° |
| 2026-05-01 10:43 | -16.67534 | -39.21401 | 40024 ft | 477 kts | 207° |
| 2026-05-01 10:43 | -16.73379 | -39.24689 | 40028 ft | 477 kts | 208° |
| 2026-05-01 10:44 | -16.79222 | -39.27976 | 40024 ft | 477 kts | 208° |
| 2026-05-01 10:44 | -16.85065 | -39.31268 | 40029 ft | 477 kts | 208° |
| 2026-05-01 10:45 | -16.90910 | -39.34564 | 40029 ft | 477 kts | 208° |
| 2026-05-01 10:45 | -16.96749 | -39.37858 | 40027 ft | 476 kts | 208° |
| 2026-05-01 10:46 | -17.02580 | -39.41150 | 40028 ft | 476 kts | 208° |
| 2026-05-01 10:46 | -17.08407 | -39.44443 | 40025 ft | 476 kts | 208° |
| 2026-05-01 10:47 | -17.14197 | -39.47716 | 40024 ft | 476 kts | 208° |
| 2026-05-01 10:47 | -17.20019 | -39.51010 | 40024 ft | 476 kts | 208° |
| 2026-05-01 10:48 | -17.25848 | -39.54311 | 40026 ft | 476 kts | 208° |
| 2026-05-01 10:48 | -17.31672 | -39.57611 | 40029 ft | 476 kts | 208° |
| 2026-05-01 10:49 | -17.37493 | -39.60911 | 40023 ft | 475 kts | 208° |
| 2026-05-01 10:49 | -17.43308 | -39.64211 | 40026 ft | 475 kts | 208° |
| 2026-05-01 10:50 | -17.49118 | -39.67511 | 40019 ft | 475 kts | 208° |
| 2026-05-01 10:50 | -17.54928 | -39.70813 | 40023 ft | 475 kts | 208° |
| 2026-05-01 10:51 | -17.60738 | -39.74117 | 40020 ft | 475 kts | 208° |
| 2026-05-01 10:51 | -17.66542 | -39.77420 | 40020 ft | 475 kts | 208° |
| 2026-05-01 10:52 | -17.72353 | -39.80730 | 40022 ft | 475 kts | 208° |
| 2026-05-01 10:52 | -17.78157 | -39.84038 | 40018 ft | 475 kts | 208° |
| 2026-05-01 10:53 | -17.83958 | -39.87347 | 40021 ft | 474 kts | 208° |
| 2026-05-01 10:53 | -17.89761 | -39.90659 | 40021 ft | 475 kts | 209° |
| 2026-05-01 10:54 | -17.95559 | -39.93972 | 40020 ft | 475 kts | 209° |
| 2026-05-01 10:54 | -18.01363 | -39.97290 | 40023 ft | 474 kts | 209° |
| 2026-05-01 10:55 | -18.07169 | -40.00591 | 40022 ft | 475 kts | 208° |
| 2026-05-01 10:55 | -18.12980 | -40.03882 | 40019 ft | 474 kts | 209° |
| 2026-05-01 10:56 | -18.18790 | -40.07177 | 40020 ft | 475 kts | 209° |
| 2026-05-01 10:56 | -18.24605 | -40.10481 | 40024 ft | 475 kts | 209° |
| 2026-05-01 10:57 | -18.30414 | -40.13786 | 40026 ft | 475 kts | 209° |
| 2026-05-01 10:57 | -18.36225 | -40.17093 | 40017 ft | 474 kts | 209° |
| 2026-05-01 10:58 | -18.42021 | -40.20396 | 40018 ft | 473 kts | 209° |
| 2026-05-01 10:58 | -18.47814 | -40.23700 | 40019 ft | 473 kts | 209° |
| 2026-05-01 10:59 | -18.53565 | -40.26981 | 40018 ft | 473 kts | 209° |
| 2026-05-01 10:59 | -18.59357 | -40.30288 | 40017 ft | 473 kts | 210° |
| 2026-05-01 11:00 | -18.65141 | -40.33593 | 40021 ft | 473 kts | 210° |
| 2026-05-01 11:00 | -18.70927 | -40.36903 | 40020 ft | 473 kts | 210° |
| 2026-05-01 11:01 | -18.76711 | -40.40214 | 40022 ft | 473 kts | 210° |
| 2026-05-01 11:01 | -18.82497 | -40.43528 | 40020 ft | 473 kts | 210° |
| 2026-05-01 11:02 | -18.88276 | -40.46841 | 40016 ft | 473 kts | 210° |
| 2026-05-01 11:02 | -18.94054 | -40.50156 | 40014 ft | 473 kts | 210° |
| 2026-05-01 11:03 | -18.99830 | -40.53473 | 40016 ft | 473 kts | 210° |
| 2026-05-01 11:03 | -19.05609 | -40.56794 | 40020 ft | 472 kts | 210° |
| 2026-05-01 11:04 | -19.11385 | -40.60116 | 40027 ft | 472 kts | 210° |
| 2026-05-01 11:04 | -19.17158 | -40.63439 | 40021 ft | 472 kts | 210° |
| 2026-05-01 11:05 | -19.22932 | -40.66765 | 40026 ft | 472 kts | 210° |
| 2026-05-01 11:05 | -19.28702 | -40.70091 | 40019 ft | 471 kts | 210° |
| 2026-05-01 11:06 | -19.33487 | -40.72852 | 40025 ft | 471 kts | 210° |
| 2026-05-01 11:06 | -19.40179 | -40.76716 | 40025 ft | 472 kts | 210° |
| 2026-05-01 11:07 | -19.47884 | -40.81167 | 40031 ft | 471 kts | 210° |
| 2026-05-01 11:07 | -19.53633 | -40.84491 | 40023 ft | 470 kts | 211° |
| 2026-05-01 11:08 | -19.59376 | -40.87819 | 40025 ft | 470 kts | 211° |
| 2026-05-01 11:09 | -19.67947 | -40.92803 | 40019 ft | 471 kts | 211° |
| 2026-05-01 11:09 | -19.73727 | -40.96168 | 40027 ft | 471 kts | 211° |
| 2026-05-01 11:10 | -19.82300 | -41.01164 | 40037 ft | 471 kts | 211° |
| 2026-05-01 11:10 | -19.88038 | -41.04511 | 40033 ft | 471 kts | 211° |
| 2026-05-01 11:11 | -19.93771 | -41.07875 | 40043 ft | 470 kts | 211° |
| 2026-05-01 11:11 | -19.99496 | -41.11241 | 40048 ft | 470 kts | 211° |
| 2026-05-01 11:12 | -20.05215 | -41.14607 | 40046 ft | 470 kts | 211° |
| 2026-05-01 11:12 | -20.10939 | -41.17976 | 40055 ft | 470 kts | 211° |
| 2026-05-01 11:13 | -20.16660 | -41.21344 | 40056 ft | 470 kts | 211° |
| 2026-05-01 11:13 | -20.22377 | -41.24710 | 40060 ft | 470 kts | 211° |
| 2026-05-01 11:14 | -20.28093 | -41.28080 | 40054 ft | 469 kts | 211° |
| 2026-05-01 11:14 | -20.33800 | -41.31457 | 40058 ft | 469 kts | 211° |
| 2026-05-01 11:15 | -20.39511 | -41.34834 | 40053 ft | 470 kts | 211° |
| 2026-05-01 11:15 | -20.45222 | -41.38213 | 40054 ft | 469 kts | 211° |
| 2026-05-01 11:16 | -20.50928 | -41.41592 | 40051 ft | 469 kts | 211° |
| 2026-05-01 11:16 | -20.56609 | -41.44933 | 40056 ft | 469 kts | 211° |
| 2026-05-01 11:17 | -20.62326 | -41.48286 | 40044 ft | 469 kts | 211° |
| 2026-05-01 11:17 | -20.68038 | -41.51643 | 40044 ft | 469 kts | 211° |
| 2026-05-01 11:18 | -20.73745 | -41.55002 | 40049 ft | 468 kts | 211° |
| 2026-05-01 11:18 | -20.79430 | -41.58353 | 40036 ft | 468 kts | 211° |
| 2026-05-01 11:19 | -20.85128 | -41.61714 | 40039 ft | 468 kts | 211° |
| 2026-05-01 11:19 | -20.90827 | -41.65078 | 40048 ft | 468 kts | 211° |
| 2026-05-01 11:20 | -20.96524 | -41.68448 | 40034 ft | 468 kts | 211° |
| 2026-05-01 11:20 | -21.02215 | -41.71812 | 40032 ft | 467 kts | 211° |
| 2026-05-01 11:21 | -21.07897 | -41.75176 | 40030 ft | 467 kts | 212° |
| 2026-05-01 11:21 | -21.13577 | -41.78541 | 40024 ft | 467 kts | 211° |
| 2026-05-01 11:22 | -21.19259 | -41.81910 | 40031 ft | 467 kts | 212° |
| 2026-05-01 11:22 | -21.24936 | -41.85274 | 40017 ft | 465 kts | 212° |
| 2026-05-01 11:23 | -21.30603 | -41.88635 | 40009 ft | 465 kts | 212° |
| 2026-05-01 11:23 | -21.36263 | -41.91999 | 40017 ft | 465 kts | 212° |
| 2026-05-01 11:24 | -21.41920 | -41.95365 | 40011 ft | 465 kts | 212° |
| 2026-05-01 11:25 | -21.50395 | -42.00416 | 39976 ft | 464 kts | 212° |
| 2026-05-01 11:25 | -21.56038 | -42.03782 | 39519 ft | 464 kts | 212° |
| 2026-05-01 11:25 | -21.58827 | -42.05447 | 39287 ft | 465 kts | 212° |
| 2026-05-01 11:26 | -21.61658 | -42.07137 | 39076 ft | 465 kts | 212° |
| 2026-05-01 11:26 | -21.67317 | -42.10518 | 38589 ft | 466 kts | 212° |
| 2026-05-01 11:26 | -21.70134 | -42.12202 | 38061 ft | 462 kts | 212° |
| 2026-05-01 11:27 | -21.72940 | -42.13881 | 37436 ft | 461 kts | 212° |
| 2026-05-01 11:27 | -21.75739 | -42.15556 | 36773 ft | 461 kts | 212° |
| 2026-05-01 11:27 | -21.78541 | -42.17233 | 36110 ft | 461 kts | 212° |
| 2026-05-01 11:27 | -21.81342 | -42.18913 | 35409 ft | 461 kts | 212° |
| 2026-05-01 11:28 | -21.84147 | -42.20595 | 34681 ft | 463 kts | 212° |
| 2026-05-01 11:28 | -21.86975 | -42.22299 | 33843 ft | 468 kts | 212° |
| 2026-05-01 11:28 | -21.89825 | -42.24022 | 32953 ft | 472 kts | 212° |
| 2026-05-01 11:29 | -21.95586 | -42.27501 | 31230 ft | 478 kts | 212° |
| 2026-05-01 11:29 | -21.98488 | -42.29254 | 30533 ft | 478 kts | 212° |
| 2026-05-01 11:29 | -22.04248 | -42.32734 | 29293 ft | 471 kts | 212° |
| 2026-05-01 11:30 | -22.06995 | -42.34599 | 28673 ft | 463 kts | 220° |
| 2026-05-01 11:30 | -22.09292 | -42.36968 | 28084 ft | 454 kts | 233° |
| 2026-05-01 11:30 | -22.10960 | -42.39805 | 27631 ft | 447 kts | 246° |
| 2026-05-01 11:30 | -22.12020 | -42.42966 | 27209 ft | 450 kts | 256° |
| 2026-05-01 11:31 | -22.12826 | -42.46234 | 26765 ft | 450 kts | 257° |
| 2026-05-01 11:31 | -22.13599 | -42.49503 | 26342 ft | 449 kts | 257° |
| 2026-05-01 11:31 | -22.14369 | -42.52750 | 25903 ft | 446 kts | 257° |
| 2026-05-01 11:31 | -22.15138 | -42.55976 | 25486 ft | 443 kts | 257° |
| 2026-05-01 11:32 | -22.15904 | -42.59181 | 25056 ft | 440 kts | 257° |
| 2026-05-01 11:32 | -22.16668 | -42.62368 | 24630 ft | 438 kts | 257° |
| 2026-05-01 11:32 | -22.17428 | -42.65535 | 24211 ft | 435 kts | 257° |
| 2026-05-01 11:32 | -22.18183 | -42.68684 | 23792 ft | 432 kts | 257° |
| 2026-05-01 11:33 | -22.18934 | -42.71816 | 23330 ft | 430 kts | 256° |
| 2026-05-01 11:33 | -22.19680 | -42.74929 | 22895 ft | 427 kts | 257° |
| 2026-05-01 11:33 | -22.20420 | -42.78022 | 22473 ft | 424 kts | 257° |
| 2026-05-01 11:33 | -22.21154 | -42.81094 | 22059 ft | 422 kts | 257° |
| 2026-05-01 11:34 | -22.21884 | -42.84147 | 21656 ft | 419 kts | 257° |
| 2026-05-01 11:34 | -22.22614 | -42.87184 | 21250 ft | 416 kts | 257° |
| 2026-05-01 11:34 | -22.23333 | -42.90200 | 20853 ft | 414 kts | 257° |
| 2026-05-01 11:34 | -22.24045 | -42.93199 | 20450 ft | 412 kts | 257° |
| 2026-05-01 11:35 | -22.24755 | -42.96183 | 20053 ft | 409 kts | 257° |
| 2026-05-01 11:35 | -22.25462 | -42.99154 | 19656 ft | 407 kts | 257° |
| 2026-05-01 11:35 | -22.26162 | -43.02102 | 19265 ft | 404 kts | 257° |
| 2026-05-01 11:35 | -22.26859 | -43.05026 | 18876 ft | 401 kts | 257° |
| 2026-05-01 11:36 | -22.27549 | -43.07938 | 18487 ft | 398 kts | 257° |
| 2026-05-01 11:36 | -22.28233 | -43.10826 | 18064 ft | 396 kts | 257° |
| 2026-05-01 11:36 | -22.28913 | -43.13701 | 17661 ft | 395 kts | 257° |
| 2026-05-01 11:36 | -22.29590 | -43.16566 | 17284 ft | 393 kts | 257° |
| 2026-05-01 11:37 | -22.30259 | -43.19419 | 16896 ft | 392 kts | 257° |
| 2026-05-01 11:37 | -22.30931 | -43.22267 | 16525 ft | 391 kts | 257° |
| 2026-05-01 11:37 | -22.31603 | -43.25107 | 16147 ft | 390 kts | 257° |
| 2026-05-01 11:37 | -22.32271 | -43.27939 | 15769 ft | 389 kts | 257° |
| 2026-05-01 11:38 | -22.32929 | -43.30725 | 15398 ft | 388 kts | 257° |
| 2026-05-01 11:38 | -22.33594 | -43.33545 | 15020 ft | 387 kts | 257° |
| 2026-05-01 11:38 | -22.34255 | -43.36354 | 14632 ft | 385 kts | 257° |
| 2026-05-01 11:38 | -22.34913 | -43.39154 | 14269 ft | 384 kts | 257° |
| 2026-05-01 11:39 | -22.35571 | -43.41953 | 13893 ft | 383 kts | 257° |
| 2026-05-01 11:39 | -22.36278 | -43.44724 | 13486 ft | 383 kts | 252° |
| 2026-05-01 11:39 | -22.37503 | -43.47262 | 13154 ft | 382 kts | 234° |
| 2026-05-01 11:39 | -22.39408 | -43.49251 | 12698 ft | 383 kts | 216° |
| 2026-05-01 11:40 | -22.41789 | -43.50545 | 12001 ft | 383 kts | 202° |
| 2026-05-01 11:40 | -22.44239 | -43.51548 | 11719 ft | 369 kts | 202° |
| 2026-05-01 11:40 | -22.46556 | -43.52484 | 11337 ft | 343 kts | 202° |
| 2026-05-01 11:40 | -22.48721 | -43.53370 | 10952 ft | 322 kts | 202° |
| 2026-05-01 11:41 | -22.50750 | -43.54213 | 10539 ft | 304 kts | 203° |
| 2026-05-01 11:41 | -22.52697 | -43.55027 | 9922 ft | 297 kts | 202° |
| 2026-05-01 11:41 | -22.54622 | -43.55760 | 9181 ft | 290 kts | 195° |
| 2026-05-01 11:41 | -22.56613 | -43.55849 | 8428 ft | 287 kts | 170° |
| 2026-05-01 11:42 | -22.58487 | -43.55118 | 7914 ft | 288 kts | 157° |
| 2026-05-01 11:42 | -22.60286 | -43.54181 | 7509 ft | 286 kts | 156° |
| 2026-05-01 11:42 | -22.62063 | -43.53236 | 7146 ft | 283 kts | 156° |
| 2026-05-01 11:42 | -22.63737 | -43.52208 | 6674 ft | 271 kts | 145° |
| 2026-05-01 11:43 | -22.65084 | -43.50858 | 6337 ft | 257 kts | 132° |
| 2026-05-01 11:43 | -22.66160 | -43.49349 | 5837 ft | 251 kts | 127° |
| 2026-05-01 11:43 | -22.67154 | -43.47808 | 5301 ft | 248 kts | 126° |
| 2026-05-01 11:44 | -22.69138 | -43.44778 | 4182 ft | 244 kts | 126° |
| 2026-05-01 11:44 | -22.70101 | -43.43310 | 3796 ft | 235 kts | 126° |
| 2026-05-01 11:44 | -22.71043 | -43.41872 | 3338 ft | 232 kts | 125° |
| 2026-05-01 11:44 | -22.71954 | -43.40475 | 3002 ft | 221 kts | 125° |
| 2026-05-01 11:45 | -22.72823 | -43.39158 | 2740 ft | 209 kts | 126° |
| 2026-05-01 11:45 | -22.73642 | -43.37921 | 2491 ft | 195 kts | 126° |
| 2026-05-01 11:45 | -22.74402 | -43.36768 | 2252 ft | 179 kts | 126° |
| 2026-05-01 11:45 | -22.75105 | -43.35700 | 1998 ft | 171 kts | 126° |
| 2026-05-01 11:46 | -22.75769 | -43.34693 | 1781 ft | 158 kts | 126° |
| 2026-05-01 11:46 | -22.76376 | -43.33769 | 1577 ft | 143 kts | 126° |
| 2026-05-01 11:46 | -22.76922 | -43.32922 | 1349 ft | 133 kts | 124° |
| 2026-05-01 11:46 | -22.77442 | -43.32107 | 1141 ft | 130 kts | 128° |
| 2026-05-01 11:47 | -22.77970 | -43.31278 | 1078 ft | 135 kts | 127° |
| 2026-05-01 11:47 | -22.78508 | -43.30454 | 937 ft | 133 kts | 127° |
| 2026-05-01 11:47 | -22.79039 | -43.29651 | 770 ft | 131 kts | 128° |
| 2026-05-01 11:47 | -22.79578 | -43.28840 | 602 ft | 132 kts | 130° |
| 2026-05-01 11:48 | -22.80118 | -43.28047 | 436 ft | 131 kts | 130° |
| 2026-05-01 11:48 | -22.80665 | -43.27234 | 257 ft | 134 kts | 125° |
| 2026-05-01 11:48 | -22.81180 | -43.26442 | 101 ft | 128 kts | 128° |
| 2026-05-01 11:48 | -22.81711 | -43.25671 | 33 ft | 122 kts | 127° |
| 2026-05-01 11:49 | -22.82144 | -43.25011 | 30 ft | 92 kts | 125° |
| 2026-05-01 11:49 | -22.82455 | -43.24543 | 30 ft | 54 kts | 126° |
| 2026-05-01 11:49 | -22.82630 | -43.24279 | 28 ft | 40 kts | 126° |
| 2026-05-01 11:49 | -22.82785 | -43.24047 | 29 ft | 35 kts | 127° |
| 2026-05-01 11:50 | -22.82884 | -43.23891 | 27 ft | 13 kts | 104° |
| 2026-05-01 11:50 | -22.82843 | -43.23812 | 27 ft | 11 kts | 39° |
| 2026-05-01 11:50 | -22.82787 | -43.23789 | 27 ft | 8 kts | 347° |
| 2026-05-01 11:50 | -22.82745 | -43.23831 | 27 ft | 10 kts | 312° |
| 2026-05-01 11:51 | -22.82698 | -43.23897 | 27 ft | 13 kts | 307° |
| 2026-05-01 11:51 | -22.82641 | -43.23982 | 27 ft | 15 kts | 306° |
| 2026-05-01 11:51 | -22.82574 | -43.24085 | 27 ft | 18 kts | 305° |
| 2026-05-01 11:51 | -22.82494 | -43.24206 | 27 ft | 21 kts | 306° |
| 2026-05-01 11:52 | -22.82408 | -43.24336 | 29 ft | 21 kts | 305° |
| 2026-05-01 11:52 | -22.82358 | -43.24396 | 27 ft | 0 kts | 325° |
| 2026-05-01 11:52 | -22.82352 | -43.24399 | 28 ft | 7 kts | 333° |
| 2026-05-01 11:52 | -22.82287 | -43.24383 | 29 ft | 11 kts | 30° |
| 2026-05-01 11:53 | -22.82228 | -43.24339 | 28 ft | 10 kts | 35° |
| 2026-05-01 11:53 | -22.82164 | -43.24297 | 27 ft | 8 kts | 15° |
| 2026-05-01 11:53 | -22.82116 | -43.24318 | 27 ft | 8 kts | 335° |
| 2026-05-01 11:53 | -22.82065 | -43.24297 | 28 ft | 9 kts | 35° |
| 2026-05-01 11:54 | -22.82003 | -43.24257 | 28 ft | 12 kts | 31° |
| 2026-05-01 11:54 | -22.81980 | -43.24240 | 28 ft | 0 kts | 37° |
| 2026-05-01 11:54 | -22.81957 | -43.24221 | 28 ft | 8 kts | 37° |
| 2026-05-01 11:54 | -22.81927 | -43.24213 | 28 ft | 5 kts | 339° |
| 2026-05-01 11:55 | -22.81900 | -43.24249 | 28 ft | 7 kts | 307° |
| 2026-05-01 11:55 | -22.81880 | -43.24279 | 28 ft | 0 kts | 307° |